2016 Cux-Wetter.de -Die Nutzung der Wetterdaten nur mit ausdrcklicher Genehmigung
Wetterdaten: Donnerstag, 30.11.2017
Datum Zeit Temp. A. Feuchte A. Luftdruck Regen Wind Richtung Richtung Sonnenschein Solar Taupunkt Windchill Windben
30.11.2017 00:00 2,4 C 97 % 1002,8 hPa 0,0 l/m 5,0 km/h (1 Bft) SW 225 0 min 0 W/m 2,0 C 2,4 C 8,0 km/h (2 Bft)
30.11.2017 00:03 2,5 C 97 % 1002,7 hPa 0,0 l/m 5,3 km/h (1 Bft) SW 222 0 min 0 W/m 2,1 C 2,5 C 9,7 km/h (2 Bft)
30.11.2017 00:06 2,6 C 97 % 1002,7 hPa 0,0 l/m 7,5 km/h (2 Bft) SW 215 0 min 0 W/m 2,2 C 1,5 C 11,3 km/h (2 Bft)
30.11.2017 00:09 2,7 C 97 % 1002,7 hPa 0,0 l/m 7,5 km/h (2 Bft) SW 218 0 min 0 W/m 2,3 C 1,6 C 11,3 km/h (2 Bft)
30.11.2017 00:12 2,8 C 97 % 1002,7 hPa 0,0 l/m 6,2 km/h (2 Bft) S-SW 209 0 min 0 W/m 2,4 C 2,8 C 9,7 km/h (2 Bft)
30.11.2017 00:15 2,9 C 97 % 1002,7 hPa 0,0 l/m 6,1 km/h (2 Bft) SW 218 0 min 0 W/m 2,5 C 2,9 C 8,0 km/h (2 Bft)
30.11.2017 00:18 2,9 C 97 % 1002,7 hPa 0,0 l/m 4,9 km/h (1 Bft) S-SW 207 0 min 0 W/m 2,5 C 2,9 C 8,0 km/h (2 Bft)
30.11.2017 00:21 2,9 C 97 % 1002,7 hPa 0,0 l/m 5,5 km/h (2 Bft) S-SW 205 0 min 0 W/m 2,5 C 2,9 C 9,7 km/h (2 Bft)
30.11.2017 00:24 2,9 C 97 % 1002,7 hPa 0,0 l/m 4,3 km/h (1 Bft) S 189 0 min 0 W/m 2,5 C 2,9 C 8,0 km/h (2 Bft)
30.11.2017 00:27 3,0 C 97 % 1002,6 hPa 0,0 l/m 5,3 km/h (1 Bft) S-SW 199 0 min 0 W/m 2,6 C 3,0 C 8,0 km/h (2 Bft)
30.11.2017 00:30 3,0 C 97 % 1002,5 hPa 0,0 l/m 3,7 km/h (1 Bft) S-SW 199 0 min 0 W/m 2,6 C 3,0 C 6,4 km/h (2 Bft)
30.11.2017 00:33 3,0 C 97 % 1002,6 hPa 0,0 l/m 4,3 km/h (1 Bft) S-SW 199 0 min 0 W/m 2,6 C 3,0 C 6,4 km/h (2 Bft)
30.11.2017 00:36 3,0 C 97 % 1002,5 hPa 0,0 l/m 5,3 km/h (1 Bft) S 189 0 min 0 W/m 2,6 C 3,0 C 9,7 km/h (2 Bft)
30.11.2017 00:39 3,0 C 97 % 1002,5 hPa 0,0 l/m 6,0 km/h (2 Bft) S-SW 207 0 min 0 W/m 2,6 C 3,0 C 9,7 km/h (2 Bft)
30.11.2017 00:42 3,0 C 97 % 1002,4 hPa 0,0 l/m 5,2 km/h (1 Bft) SW 217 0 min 0 W/m 2,6 C 3,0 C 8,0 km/h (2 Bft)
30.11.2017 00:45 3,1 C 97 % 1002,4 hPa 0,0 l/m 6,3 km/h (2 Bft) SW 217 0 min 0 W/m 2,7 C 3,1 C 9,7 km/h (2 Bft)
30.11.2017 00:48 3,1 C 97 % 1002,4 hPa 0,0 l/m 6,9 km/h (2 Bft) SW 215 0 min 0 W/m 2,7 C 2,6 C 11,3 km/h (2 Bft)
30.11.2017 00:51 3,1 C 97 % 1002,4 hPa 0,0 l/m 6,8 km/h (2 Bft) SW 216 0 min 0 W/m 2,7 C 2,7 C 12,9 km/h (3 Bft)
30.11.2017 00:54 3,2 C 97 % 1002,4 hPa 0,0 l/m 5,7 km/h (2 Bft) SW 221 0 min 0 W/m 2,8 C 3,2 C 8,0 km/h (2 Bft)
30.11.2017 00:57 3,2 C 97 % 1002,4 hPa 0,0 l/m 6,3 km/h (2 Bft) S-SW 211 0 min 0 W/m 2,8 C 3,2 C 9,7 km/h (2 Bft)
30.11.2017 01:00 3,2 C 97 % 1002,4 hPa 0,0 l/m 6,2 km/h (2 Bft) S-SW 209 0 min 0 W/m 2,8 C 3,2 C 8,0 km/h (2 Bft)
30.11.2017 01:03 3,2 C 97 % 1002,3 hPa 0,0 l/m 6,8 km/h (2 Bft) W-SW 245 0 min 0 W/m 2,8 C 2,8 C 9,7 km/h (2 Bft)
30.11.2017 01:06 3,2 C 97 % 1002,3 hPa 0,0 l/m 7,0 km/h (2 Bft) S-SW 210 0 min 0 W/m 2,8 C 2,6 C 11,3 km/h (2 Bft)
30.11.2017 01:09 3,2 C 97 % 1002,3 hPa 0,0 l/m 9,3 km/h (2 Bft) SW 221 0 min 0 W/m 2,8 C 0,6 C 12,9 km/h (3 Bft)
30.11.2017 01:12 3,2 C 97 % 1002,4 hPa 0,0 l/m 5,9 km/h (2 Bft) SW 215 0 min 0 W/m 2,8 C 3,2 C 9,7 km/h (2 Bft)
30.11.2017 01:15 3,2 C 97 % 1002,4 hPa 0,0 l/m 6,1 km/h (2 Bft) SW 215 0 min 0 W/m 2,8 C 3,2 C 9,7 km/h (2 Bft)
30.11.2017 01:18 3,2 C 97 % 1002,4 hPa 0,0 l/m 6,9 km/h (2 Bft) W-SW 244 0 min 0 W/m 2,8 C 2,7 C 9,7 km/h (2 Bft)
30.11.2017 01:21 3,2 C 97 % 1002,4 hPa 0,0 l/m 6,9 km/h (2 Bft) S-SW 202 0 min 0 W/m 2,8 C 2,7 C 11,3 km/h (2 Bft)
30.11.2017 01:24 3,2 C 97 % 1002,3 hPa 0,0 l/m 6,3 km/h (2 Bft) SW 220 0 min 0 W/m 2,8 C 3,2 C 12,9 km/h (3 Bft)
30.11.2017 01:27 3,3 C 97 % 1002,3 hPa 0,0 l/m 4,9 km/h (1 Bft) SW 221 0 min 0 W/m 2,9 C 3,3 C 9,7 km/h (2 Bft)
30.11.2017 01:30 3,3 C 97 % 1002,3 hPa 0,0 l/m 4,5 km/h (1 Bft) S-SW 202 0 min 0 W/m 2,9 C 3,3 C 8,0 km/h (2 Bft)
30.11.2017 01:33 3,3 C 97 % 1002,2 hPa 0,0 l/m 4,5 km/h (1 Bft) S-SW 193 0 min 0 W/m 2,9 C 3,3 C 8,0 km/h (2 Bft)
30.11.2017 01:36 3,3 C 97 % 1002,2 hPa 0,0 l/m 4,1 km/h (1 Bft) S 169 0 min 0 W/m 2,9 C 3,3 C 9,7 km/h (2 Bft)
30.11.2017 01:39 3,3 C 97 % 1002,2 hPa 0,0 l/m 4,5 km/h (1 Bft) S-SW 192 0 min 0 W/m 2,9 C 3,3 C 11,3 km/h (2 Bft)
30.11.2017 01:42 3,3 C 97 % 1002,1 hPa 0,0 l/m 3,5 km/h (1 Bft) S-SW 192 0 min 0 W/m 2,9 C 3,3 C 6,4 km/h (2 Bft)
30.11.2017 01:45 3,3 C 97 % 1002,1 hPa 0,0 l/m 5,1 km/h (1 Bft) S-SW 201 0 min 0 W/m 2,9 C 3,3 C 8,0 km/h (2 Bft)
30.11.2017 01:48 3,3 C 97 % 1002,1 hPa 0,0 l/m 3,0 km/h (1 Bft) S-SW 201 0 min 0 W/m 2,9 C 3,3 C 4,8 km/h (1 Bft)
30.11.2017 01:51 3,3 C 97 % 1002,1 hPa 0,0 l/m 3,4 km/h (1 Bft) S-SW 201 0 min 0 W/m 2,9 C 3,3 C 6,4 km/h (2 Bft)
30.11.2017 01:54 3,3 C 97 % 1002,0 hPa 0,0 l/m 3,2 km/h (1 Bft) S-SW 201 0 min 0 W/m 2,9 C 3,3 C 4,8 km/h (1 Bft)
30.11.2017 01:57 3,3 C 97 % 1002,0 hPa 0,0 l/m 2,5 km/h (1 Bft) S-SW 192 0 min 0 W/m 2,9 C 3,3 C 6,4 km/h (2 Bft)
30.11.2017 02:00 3,3 C 97 % 1002,0 hPa 0,0 l/m 3,8 km/h (1 Bft) S 188 0 min 0 W/m 2,9 C 3,3 C 8,0 km/h (2 Bft)
30.11.2017 02:03 3,4 C 97 % 1001,9 hPa 0,0 l/m 4,7 km/h (1 Bft) S-SW 209 0 min 0 W/m 3,0 C 3,4 C 8,0 km/h (2 Bft)
30.11.2017 02:06 3,4 C 97 % 1001,9 hPa 0,0 l/m 5,2 km/h (1 Bft) S-SW 200 0 min 0 W/m 3,0 C 3,4 C 8,0 km/h (2 Bft)
30.11.2017 02:09 3,4 C 97 % 1001,9 hPa 0,0 l/m 5,3 km/h (1 Bft) S-SW 198 0 min 0 W/m 3,0 C 3,4 C 8,0 km/h (2 Bft)
30.11.2017 02:12 3,4 C 97 % 1002,0 hPa 0,0 l/m 5,5 km/h (2 Bft) SW 225 0 min 0 W/m 3,0 C 3,4 C 9,7 km/h (2 Bft)
30.11.2017 02:15 3,4 C 97 % 1001,9 hPa 0,0 l/m 5,4 km/h (2 Bft) S-SW 211 0 min 0 W/m 3,0 C 3,4 C 8,0 km/h (2 Bft)
30.11.2017 02:18 3,5 C 97 % 1001,8 hPa 0,0 l/m 6,4 km/h (2 Bft) S-SW 213 0 min 0 W/m 3,1 C 3,5 C 9,7 km/h (2 Bft)
30.11.2017 02:21 3,5 C 97 % 1001,8 hPa 0,0 l/m 4,9 km/h (1 Bft) SW 222 0 min 0 W/m 3,1 C 3,5 C 8,0 km/h (2 Bft)
30.11.2017 02:24 3,5 C 97 % 1001,8 hPa 0,0 l/m 3,9 km/h (1 Bft) SW 223 0 min 0 W/m 3,1 C 3,5 C 6,4 km/h (2 Bft)
30.11.2017 02:27 3,5 C 97 % 1001,8 hPa 0,0 l/m 4,7 km/h (1 Bft) S-SW 213 0 min 0 W/m 3,1 C 3,5 C 9,7 km/h (2 Bft)
30.11.2017 02:30 3,5 C 97 % 1001,8 hPa 0,0 l/m 6,1 km/h (2 Bft) SW 216 0 min 0 W/m 3,1 C 3,5 C 9,7 km/h (2 Bft)
30.11.2017 02:33 3,5 C 97 % 1001,7 hPa 0,0 l/m 6,4 km/h (2 Bft) S-SW 210 0 min 0 W/m 3,1 C 3,5 C 12,9 km/h (3 Bft)
30.11.2017 02:36 3,5 C 97 % 1001,7 hPa 0,0 l/m 7,3 km/h (2 Bft) SW 217 0 min 0 W/m 3,1 C 2,7 C 9,7 km/h (2 Bft)
30.11.2017 02:39 3,5 C 97 % 1001,7 hPa 0,0 l/m 6,5 km/h (2 Bft) SW 219 0 min 0 W/m 3,1 C 3,4 C 9,7 km/h (2 Bft)
30.11.2017 02:42 3,5 C 97 % 1001,7 hPa 0,0 l/m 6,8 km/h (2 Bft) SW 214 0 min 0 W/m 3,1 C 3,1 C 14,5 km/h (3 Bft)
30.11.2017 02:45 3,4 C 97 % 1001,7 hPa 0,0 l/m 5,9 km/h (2 Bft) SW 216 0 min 0 W/m 3,0 C 3,4 C 11,3 km/h (2 Bft)
30.11.2017 02:48 3,4 C 97 % 1001,6 hPa 0,0 l/m 7,7 km/h (2 Bft) S-SW 212 0 min 0 W/m 3,0 C 2,2 C 12,9 km/h (3 Bft)
30.11.2017 02:51 3,4 C 97 % 1001,6 hPa 0,0 l/m 7,1 km/h (2 Bft) S-SW 207 0 min 0 W/m 3,0 C 2,7 C 12,9 km/h (3 Bft)
30.11.2017 02:54 3,4 C 97 % 1001,6 hPa 0,0 l/m 6,2 km/h (2 Bft) S-SW 209 0 min 0 W/m 3,0 C 3,4 C 9,7 km/h (2 Bft)
30.11.2017 02:57 3,4 C 97 % 1001,5 hPa 0,0 l/m 7,5 km/h (2 Bft) SW 220 0 min 0 W/m 3,0 C 2,4 C 11,3 km/h (2 Bft)
30.11.2017 03:00 3,3 C 97 % 1001,5 hPa 0,0 l/m 6,8 km/h (2 Bft) S-SW 209 0 min 0 W/m 2,9 C 2,9 C 11,3 km/h (2 Bft)
30.11.2017 03:03 3,3 C 97 % 1001,5 hPa 0,0 l/m 6,7 km/h (2 Bft) S-SW 199 0 min 0 W/m 2,9 C 3,0 C 11,3 km/h (2 Bft)
30.11.2017 03:06 3,3 C 97 % 1001,4 hPa 0,0 l/m 6,5 km/h (2 Bft) S-SW 207 0 min 0 W/m 2,9 C 3,2 C 12,9 km/h (3 Bft)
30.11.2017 03:09 3,3 C 97 % 1001,5 hPa 0,0 l/m 7,3 km/h (2 Bft) SW 227 0 min 0 W/m 2,9 C 2,5 C 14,5 km/h (3 Bft)
30.11.2017 03:12 3,3 C 97 % 1001,5 hPa 0,0 l/m 8,2 km/h (2 Bft) SW 234 0 min 0 W/m 2,9 C 1,6 C 14,5 km/h (3 Bft)
30.11.2017 03:15 3,3 C 97 % 1001,5 hPa 0,0 l/m 6,0 km/h (2 Bft) S 189 0 min 0 W/m 2,9 C 3,3 C 9,7 km/h (2 Bft)
30.11.2017 03:18 3,3 C 97 % 1001,5 hPa 0,0 l/m 7,1 km/h (2 Bft) S-SW 213 0 min 0 W/m 2,9 C 2,6 C 11,3 km/h (2 Bft)
30.11.2017 03:21 3,3 C 97 % 1001,5 hPa 0,0 l/m 5,5 km/h (2 Bft) SW 229 0 min 0 W/m 2,9 C 3,3 C 9,7 km/h (2 Bft)
30.11.2017 03:24 3,3 C 97 % 1001,4 hPa 0,0 l/m 4,9 km/h (1 Bft) SW 219 0 min 0 W/m 2,9 C 3,3 C 8,0 km/h (2 Bft)
30.11.2017 03:27 3,3 C 97 % 1001,4 hPa 0,0 l/m 6,2 km/h (2 Bft) S-SW 209 0 min 0 W/m 2,9 C 3,3 C 9,7 km/h (2 Bft)
30.11.2017 03:30 3,3 C 97 % 1001,4 hPa 0,0 l/m 5,7 km/h (2 Bft) S-SW 204 0 min 0 W/m 2,9 C 3,3 C 11,3 km/h (2 Bft)
30.11.2017 03:33 3,3 C 97 % 1001,3 hPa 0,0 l/m 7,7 km/h (2 Bft) S-SW 210 0 min 0 W/m 2,9 C 2,1 C 12,9 km/h (3 Bft)
30.11.2017 03:36 3,3 C 97 % 1001,4 hPa 0,0 l/m 8,1 km/h (2 Bft) SW 215 0 min 0 W/m 2,9 C 1,7 C 11,3 km/h (2 Bft)
30.11.2017 03:39 3,3 C 97 % 1001,3 hPa 0,0 l/m 9,7 km/h (2 Bft) SW 218 0 min 0 W/m 2,9 C 0,4 C 17,7 km/h (3 Bft)
30.11.2017 03:42 3,3 C 97 % 1001,3 hPa 0,0 l/m 9,9 km/h (2 Bft) S-SW 211 0 min 0 W/m 2,9 C 0,3 C 16,1 km/h (3 Bft)
30.11.2017 03:45 3,3 C 97 % 1001,3 hPa 0,0 l/m 8,4 km/h (2 Bft) S 188 0 min 0 W/m 2,9 C 1,5 C 12,9 km/h (3 Bft)
30.11.2017 03:48 3,3 C 97 % 1001,3 hPa 0,0 l/m 6,6 km/h (2 Bft) SW 232 0 min 0 W/m 2,9 C 3,1 C 11,3 km/h (2 Bft)
30.11.2017 03:51 3,3 C 97 % 1001,3 hPa 0,0 l/m 10,2 km/h (2 Bft) S-SW 207 0 min 0 W/m 2,9 C 0,0 C 16,1 km/h (3 Bft)
30.11.2017 03:54 3,3 C 97 % 1001,3 hPa 0,0 l/m 10,1 km/h (2 Bft) S-SW 212 0 min 0 W/m 2,9 C 0,1 C 14,5 km/h (3 Bft)
30.11.2017 03:57 3,2 C 97 % 1001,3 hPa 0,0 l/m 10,3 km/h (2 Bft) SW 224 0 min 0 W/m 2,8 C -0,1 C 19,3 km/h (3 Bft)
30.11.2017 04:00 3,2 C 97 % 1001,3 hPa 0,0 l/m 7,9 km/h (2 Bft) S-SW 193 0 min 0 W/m 2,8 C 1,8 C 12,9 km/h (3 Bft)
30.11.2017 04:03 3,2 C 97 % 1001,3 hPa 0,0 l/m 10,0 km/h (2 Bft) S-SW 209 0 min 0 W/m 2,8 C 0,1 C 16,1 km/h (3 Bft)
30.11.2017 04:06 3,2 C 97 % 1001,2 hPa 0,0 l/m 8,6 km/h (2 Bft) SW 228 0 min 0 W/m 2,8 C 1,2 C 14,5 km/h (3 Bft)
30.11.2017 04:09 3,2 C 97 % 1001,2 hPa 0,0 l/m 8,0 km/h (2 Bft) SW 215 0 min 0 W/m 2,8 C 1,7 C 12,9 km/h (3 Bft)
30.11.2017 04:12 3,2 C 97 % 1001,2 hPa 0,0 l/m 7,6 km/h (2 Bft) S-SW 213 0 min 0 W/m 2,8 C 2,1 C 11,3 km/h (2 Bft)
30.11.2017 04:15 3,2 C 97 % 1001,1 hPa 0,0 l/m 7,4 km/h (2 Bft) SW 214 0 min 0 W/m 2,8 C 2,3 C 12,9 km/h (3 Bft)
30.11.2017 04:18 3,1 C 97 % 1001,1 hPa 0,0 l/m 6,5 km/h (2 Bft) S-SW 207 0 min 0 W/m 2,7 C 3,0 C 9,7 km/h (2 Bft)
30.11.2017 04:21 3,1 C 97 % 1001,1 hPa 0,0 l/m 7,4 km/h (2 Bft) W-SW 237 0 min 0 W/m 2,7 C 2,2 C 12,9 km/h (3 Bft)
30.11.2017 04:24 3,1 C 97 % 1001,1 hPa 0,0 l/m 5,3 km/h (1 Bft) S-SW 212 0 min 0 W/m 2,7 C 3,1 C 8,0 km/h (2 Bft)
30.11.2017 04:27 3,1 C 97 % 1001,0 hPa 0,0 l/m 7,4 km/h (2 Bft) SW 218 0 min 0 W/m 2,7 C 2,2 C 12,9 km/h (3 Bft)
30.11.2017 04:30 3,1 C 97 % 1001,0 hPa 0,0 l/m 7,4 km/h (2 Bft) S 183 0 min 0 W/m 2,7 C 2,2 C 14,5 km/h (3 Bft)
30.11.2017 04:33 3,1 C 97 % 1001,0 hPa 0,0 l/m 8,6 km/h (2 Bft) SW 234 0 min 0 W/m 2,7 C 1,1 C 12,9 km/h (3 Bft)
30.11.2017 04:36 3,1 C 97 % 1001,0 hPa 0,0 l/m 6,8 km/h (2 Bft) S 188 0 min 0 W/m 2,7 C 2,7 C 11,3 km/h (2 Bft)
30.11.2017 04:39 3,1 C 97 % 1000,9 hPa 0,0 l/m 7,4 km/h (2 Bft) SW 229 0 min 0 W/m 2,7 C 2,2 C 14,5 km/h (3 Bft)
30.11.2017 04:42 3,1 C 97 % 1000,9 hPa 0,0 l/m 7,9 km/h (2 Bft) SW 219 0 min 0 W/m 2,7 C 1,7 C 12,9 km/h (3 Bft)
30.11.2017 04:45 3,1 C 97 % 1000,8 hPa 0,0 l/m 6,9 km/h (2 Bft) S-SW 206 0 min 0 W/m 2,7 C 2,6 C 11,3 km/h (2 Bft)
30.11.2017 04:48 3,1 C 97 % 1000,8 hPa 0,0 l/m 8,3 km/h (2 Bft) S-SW 207 0 min 0 W/m 2,7 C 1,3 C 14,5 km/h (3 Bft)
30.11.2017 04:51 3,1 C 97 % 1000,8 hPa 0,0 l/m 7,3 km/h (2 Bft) S-SW 194 0 min 0 W/m 2,7 C 2,2 C 12,9 km/h (3 Bft)
30.11.2017 04:54 3,0 C 97 % 1000,9 hPa 0,0 l/m 6,6 km/h (2 Bft) S-SW 193 0 min 0 W/m 2,6 C 2,8 C 11,3 km/h (2 Bft)
30.11.2017 04:57 3,0 C 97 % 1000,8 hPa 0,0 l/m 6,7 km/h (2 Bft) SW 217 0 min 0 W/m 2,6 C 2,7 C 11,3 km/h (2 Bft)
30.11.2017 05:00 3,0 C 97 % 1000,9 hPa 0,0 l/m 7,3 km/h (2 Bft) S-SW 200 0 min 0 W/m 2,6 C 2,1 C 11,3 km/h (2 Bft)
30.11.2017 05:03 2,9 C 97 % 1000,9 hPa 0,0 l/m 8,4 km/h (2 Bft) S-SW 213 0 min 0 W/m 2,5 C 1,0 C 12,9 km/h (3 Bft)
30.11.2017 05:06 3,0 C 97 % 1000,9 hPa 0,0 l/m 8,0 km/h (2 Bft) S-SW 206 0 min 0 W/m 2,6 C 1,5 C 12,9 km/h (3 Bft)
30.11.2017 05:09 2,9 C 97 % 1000,9 hPa 0,0 l/m 7,8 km/h (2 Bft) SW 222 0 min 0 W/m 2,5 C 1,6 C 14,5 km/h (3 Bft)
30.11.2017 05:12 2,9 C 97 % 1000,9 hPa 0,0 l/m 7,6 km/h (2 Bft) S-SW 201 0 min 0 W/m 2,5 C 1,8 C 12,9 km/h (3 Bft)
30.11.2017 05:15 2,9 C 97 % 1000,8 hPa 0,0 l/m 6,7 km/h (2 Bft) SW 215 0 min 0 W/m 2,5 C 2,6 C 12,9 km/h (3 Bft)
30.11.2017 05:18 2,9 C 97 % 1000,8 hPa 0,0 l/m 7,3 km/h (2 Bft) SW 227 0 min 0 W/m 2,5 C 2,0 C 14,5 km/h (3 Bft)
30.11.2017 05:21 2,9 C 97 % 1000,8 hPa 0,0 l/m 8,4 km/h (2 Bft) S-SW 194 0 min 0 W/m 2,5 C 1,0 C 14,5 km/h (3 Bft)
30.11.2017 05:24 2,9 C 97 % 1000,8 hPa 0,0 l/m 9,5 km/h (2 Bft) S-SW 200 0 min 0 W/m 2,5 C 0,1 C 17,7 km/h (3 Bft)
30.11.2017 05:27 2,9 C 97 % 1000,7 hPa 0,0 l/m 8,9 km/h (2 Bft) S 180 0 min 0 W/m 2,5 C 0,6 C 16,1 km/h (3 Bft)
30.11.2017 05:30 2,9 C 97 % 1000,7 hPa 0,0 l/m 6,5 km/h (2 Bft) S 184 0 min 0 W/m 2,5 C 2,8 C 14,5 km/h (3 Bft)
30.11.2017 05:33 2,8 C 97 % 1000,7 hPa 0,0 l/m 8,0 km/h (2 Bft) S-SW 195 0 min 0 W/m 2,4 C 1,3 C 14,5 km/h (3 Bft)
30.11.2017 05:36 2,8 C 97 % 1000,6 hPa 0,0 l/m 6,7 km/h (2 Bft) S 182 0 min 0 W/m 2,4 C 2,5 C 14,5 km/h (3 Bft)
30.11.2017 05:39 2,8 C 97 % 1000,6 hPa 0,0 l/m 5,3 km/h (1 Bft) S-SW 200 0 min 0 W/m 2,4 C 2,8 C 11,3 km/h (2 Bft)
30.11.2017 05:42 2,8 C 97 % 1000,6 hPa 0,0 l/m 8,7 km/h (2 Bft) S-SW 204 0 min 0 W/m 2,4 C 0,7 C 14,5 km/h (3 Bft)
30.11.2017 05:45 2,8 C 97 % 1000,6 hPa 0,0 l/m 8,8 km/h (2 Bft) S-SW 207 0 min 0 W/m 2,4 C 0,6 C 12,9 km/h (3 Bft)
30.11.2017 05:48 2,8 C 97 % 1000,6 hPa 0,0 l/m 7,4 km/h (2 Bft) SW 215 0 min 0 W/m 2,4 C 1,8 C 14,5 km/h (3 Bft)
30.11.2017 05:51 2,8 C 97 % 1000,6 hPa 0,0 l/m 6,9 km/h (2 Bft) S-SW 213 0 min 0 W/m 2,4 C 2,3 C 11,3 km/h (2 Bft)
30.11.2017 05:54 2,8 C 97 % 1000,5 hPa 0,0 l/m 6,5 km/h (2 Bft) SW 215 0 min 0 W/m 2,4 C 2,7 C 9,7 km/h (2 Bft)
30.11.2017 05:57 2,8 C 97 % 1000,6 hPa 0,0 l/m 8,6 km/h (2 Bft) SW 216 0 min 0 W/m 2,4 C 0,8 C 12,9 km/h (3 Bft)
30.11.2017 06:00 2,8 C 97 % 1000,6 hPa 0,0 l/m 8,9 km/h (2 Bft) S-SW 213 0 min 0 W/m 2,4 C 0,5 C 12,9 km/h (3 Bft)
30.11.2017 06:03 2,8 C 97 % 1000,5 hPa 0,0 l/m 9,5 km/h (2 Bft) W-SW 238 0 min 0 W/m 2,4 C 0,0 C 19,3 km/h (3 Bft)
30.11.2017 06:06 2,8 C 97 % 1000,6 hPa 0,0 l/m 12,3 km/h (2 Bft) W-SW 243 0 min 0 W/m 2,4 C -2,0 C 19,3 km/h (3 Bft)
30.11.2017 06:09 2,8 C 97 % 1000,6 hPa 0,0 l/m 13,3 km/h (3 Bft) S-SW 209 0 min 0 W/m 2,4 C -2,6 C 20,9 km/h (4 Bft)
30.11.2017 06:12 2,8 C 97 % 1000,6 hPa 0,0 l/m 11,2 km/h (2 Bft) S-SW 198 0 min 0 W/m 2,4 C -1,2 C 17,7 km/h (3 Bft)
30.11.2017 06:15 2,7 C 97 % 1000,5 hPa 0,0 l/m 10,1 km/h (2 Bft) SW 223 0 min 0 W/m 2,3 C -0,5 C 19,3 km/h (3 Bft)
30.11.2017 06:18 2,7 C 97 % 1000,6 hPa 0,0 l/m 12,3 km/h (2 Bft) SW 229 0 min 0 W/m 2,3 C -2,1 C 22,5 km/h (4 Bft)
30.11.2017 06:21 2,8 C 97 % 1000,6 hPa 0,0 l/m 10,6 km/h (2 Bft) SW 230 0 min 0 W/m 2,4 C -0,8 C 17,7 km/h (3 Bft)
30.11.2017 06:24 2,8 C 97 % 1000,5 hPa 0,0 l/m 10,8 km/h (2 Bft) SW 221 0 min 0 W/m 2,4 C -0,9 C 16,1 km/h (3 Bft)
30.11.2017 06:27 2,8 C 97 % 1000,5 hPa 0,0 l/m 10,2 km/h (2 Bft) S-SW 199 0 min 0 W/m 2,4 C -0,5 C 16,1 km/h (3 Bft)
30.11.2017 06:30 2,8 C 97 % 1000,5 hPa 0,0 l/m 9,9 km/h (2 Bft) SW 215 0 min 0 W/m 2,4 C -0,3 C 16,1 km/h (3 Bft)
30.11.2017 06:33 2,8 C 97 % 1000,5 hPa 0,0 l/m 8,2 km/h (2 Bft) SW 219 0 min 0 W/m 2,4 C 1,1 C 12,9 km/h (3 Bft)
30.11.2017 06:36 2,8 C 97 % 1000,5 hPa 0,0 l/m 7,8 km/h (2 Bft) S-SW 202 0 min 0 W/m 2,4 C 1,5 C 14,5 km/h (3 Bft)
30.11.2017 06:39 2,8 C 97 % 1000,5 hPa 0,0 l/m 7,7 km/h (2 Bft) S-SW 192 0 min 0 W/m 2,4 C 1,6 C 14,5 km/h (3 Bft)
30.11.2017 06:42 2,8 C 97 % 1000,6 hPa 0,0 l/m 9,0 km/h (2 Bft) SW 215 0 min 0 W/m 2,4 C 0,4 C 17,7 km/h (3 Bft)
30.11.2017 06:45 2,8 C 97 % 1000,5 hPa 0,0 l/m 9,0 km/h (2 Bft) S-SW 207 0 min 0 W/m 2,4 C 0,4 C 14,5 km/h (3 Bft)
30.11.2017 06:48 2,8 C 97 % 1000,5 hPa 0,0 l/m 8,8 km/h (2 Bft) S-SW 206 0 min 0 W/m 2,4 C 0,6 C 16,1 km/h (3 Bft)
30.11.2017 06:51 2,8 C 97 % 1000,5 hPa 0,0 l/m 7,8 km/h (2 Bft) S-SW 213 0 min 0 W/m 2,4 C 1,5 C 14,5 km/h (3 Bft)
30.11.2017 06:54 2,8 C 97 % 1000,4 hPa 0,0 l/m 8,4 km/h (2 Bft) SW 224 0 min 0 W/m 2,4 C 0,9 C 16,1 km/h (3 Bft)
30.11.2017 06:57 2,8 C 97 % 1000,4 hPa 0,0 l/m 7,1 km/h (2 Bft) S 186 0 min 0 W/m 2,4 C 2,1 C 11,3 km/h (2 Bft)
30.11.2017 07:00 2,8 C 97 % 1000,4 hPa 0,0 l/m 6,1 km/h (2 Bft) S 183 0 min 0 W/m 2,4 C 2,8 C 11,3 km/h (2 Bft)
30.11.2017 07:03 2,8 C 97 % 1000,4 hPa 0,0 l/m 5,6 km/h (2 Bft) S 182 0 min 0 W/m 2,4 C 2,8 C 9,7 km/h (2 Bft)
30.11.2017 07:06 2,8 C 97 % 1000,4 hPa 0,0 l/m 5,4 km/h (2 Bft) S-SW 194 0 min 0 W/m 2,4 C 2,8 C 9,7 km/h (2 Bft)
30.11.2017 07:09 2,8 C 97 % 1000,4 hPa 0,0 l/m 7,4 km/h (2 Bft) S 184 0 min 0 W/m 2,4 C 1,8 C 12,9 km/h (3 Bft)
30.11.2017 07:12 2,8 C 97 % 1000,4 hPa 0,0 l/m 6,4 km/h (2 Bft) S 177 0 min 0 W/m 2,4 C 2,8 C 12,9 km/h (3 Bft)
30.11.2017 07:15 2,8 C 97 % 1000,4 hPa 0,0 l/m 5,8 km/h (2 Bft) S 169 0 min 0 W/m 2,4 C 2,8 C 9,7 km/h (2 Bft)
30.11.2017 07:18 2,8 C 97 % 1000,5 hPa 0,0 l/m 6,5 km/h (2 Bft) S-SW 205 0 min 0 W/m 2,4 C 2,7 C 11,3 km/h (2 Bft)
30.11.2017 07:21 2,8 C 97 % 1000,5 hPa 0,0 l/m 7,4 km/h (2 Bft) S 186 0 min 0 W/m 2,4 C 1,8 C 11,3 km/h (2 Bft)
30.11.2017 07:24 2,8 C 97 % 1000,5 hPa 0,0 l/m 8,1 km/h (2 Bft) S-SW 204 0 min 0 W/m 2,4 C 1,2 C 14,5 km/h (3 Bft)
30.11.2017 07:27 2,8 C 97 % 1000,5 hPa 0,0 l/m 5,6 km/h (2 Bft) S-SW 213 0 min 0 W/m 2,4 C 2,8 C 8,0 km/h (2 Bft)
30.11.2017 07:30 2,8 C 97 % 1000,5 hPa 0,0 l/m 7,0 km/h (2 Bft) SW 224 0 min 0 W/m 2,4 C 2,2 C 12,9 km/h (3 Bft)
30.11.2017 07:33 2,8 C 97 % 1000,4 hPa 0,0 l/m 9,3 km/h (2 Bft) W-SW 248 0 min 0 W/m 2,4 C 0,2 C 14,5 km/h (3 Bft)
30.11.2017 07:36 2,8 C 97 % 1000,4 hPa 0,0 l/m 6,5 km/h (2 Bft) SW 217 0 min 0 W/m 2,4 C 2,7 C 12,9 km/h (3 Bft)
30.11.2017 07:39 2,8 C 97 % 1000,3 hPa 0,0 l/m 7,3 km/h (2 Bft) SW 221 0 min 0 W/m 2,4 C 1,9 C 14,5 km/h (3 Bft)
30.11.2017 07:42 2,8 C 97 % 1000,4 hPa 0,0 l/m 5,5 km/h (2 Bft) S-SW 199 0 min 0 W/m 2,4 C 2,8 C 11,3 km/h (2 Bft)
30.11.2017 07:45 2,7 C 97 % 1000,4 hPa 0,0 l/m 7,3 km/h (2 Bft) S 169 0 min 0 W/m 2,3 C 1,8 C 9,7 km/h (2 Bft)
30.11.2017 07:48 2,7 C 97 % 1000,4 hPa 0,0 l/m 6,1 km/h (2 Bft) S 180 0 min 0 W/m 2,3 C 2,7 C 11,3 km/h (2 Bft)
30.11.2017 07:51 2,7 C 97 % 1000,4 hPa 0,0 l/m 5,3 km/h (1 Bft) S-SO 167 0 min 0 W/m 2,3 C 2,7 C 9,7 km/h (2 Bft)
30.11.2017 07:54 2,8 C 97 % 1000,3 hPa 0,0 l/m 6,0 km/h (2 Bft) S 171 0 min 0 W/m 2,4 C 2,8 C 12,9 km/h (3 Bft)
30.11.2017 07:57 2,7 C 97 % 1000,3 hPa 0,0 l/m 7,0 km/h (2 Bft) S 172 0 min 0 W/m 2,3 C 2,1 C 11,3 km/h (2 Bft)
30.11.2017 08:00 2,8 C 97 % 1000,3 hPa 0,0 l/m 6,8 km/h (2 Bft) S-SO 163 0 min 0 W/m 2,4 C 2,4 C 11,3 km/h (2 Bft)
30.11.2017 08:03 2,8 C 97 % 1000,3 hPa 0,0 l/m 6,4 km/h (2 Bft) S 184 0 min 0 W/m 2,4 C 2,8 C 14,5 km/h (3 Bft)
30.11.2017 08:06 2,8 C 97 % 1000,4 hPa 0,0 l/m 6,3 km/h (2 Bft) S 175 0 min 0 W/m 2,4 C 2,8 C 9,7 km/h (2 Bft)
30.11.2017 08:09 2,8 C 97 % 1000,4 hPa 0,0 l/m 5,0 km/h (1 Bft) S 182 0 min 0 W/m 2,4 C 2,8 C 9,7 km/h (2 Bft)
30.11.2017 08:12 2,8 C 97 % 1000,4 hPa 0,0 l/m 4,6 km/h (1 Bft) S 185 0 min 0 W/m 2,4 C 2,8 C 9,7 km/h (2 Bft)
30.11.2017 08:15 2,8 C 97 % 1000,4 hPa 0,0 l/m 6,3 km/h (2 Bft) S-SW 200 0 min 0 W/m 2,4 C 2,8 C 9,7 km/h (2 Bft)
30.11.2017 08:18 2,8 C 97 % 1000,5 hPa 0,0 l/m 4,9 km/h (1 Bft) S 173 0 min 0 W/m 2,4 C 2,8 C 9,7 km/h (2 Bft)
30.11.2017 08:21 2,8 C 97 % 1000,5 hPa 0,0 l/m 6,4 km/h (2 Bft) S-SW 197 0 min 0 W/m 2,4 C 2,8 C 12,9 km/h (3 Bft)
30.11.2017 08:24 2,8 C 97 % 1000,5 hPa 0,0 l/m 4,7 km/h (1 Bft) S-SO 167 0 min 0 W/m 2,4 C 2,8 C 9,7 km/h (2 Bft)
30.11.2017 08:27 2,8 C 97 % 1000,6 hPa 0,0 l/m 5,0 km/h (1 Bft) S-SO 167 0 min 0 W/m 2,4 C 2,8 C 9,7 km/h (2 Bft)
30.11.2017 08:30 2,8 C 97 % 1000,5 hPa 0,0 l/m 6,1 km/h (2 Bft) S 178 0 min 0 W/m 2,4 C 2,8 C 8,0 km/h (2 Bft)
30.11.2017 08:33 2,9 C 97 % 1000,5 hPa 0,0 l/m 6,3 km/h (2 Bft) S 174 0 min 0 W/m 2,5 C 2,9 C 11,3 km/h (2 Bft)
30.11.2017 08:36 2,9 C 97 % 1000,5 hPa 0,0 l/m 8,3 km/h (2 Bft) S 188 0 min 0 W/m 2,5 C 1,1 C 11,3 km/h (2 Bft)
30.11.2017 08:39 2,9 C 97 % 1000,5 hPa 0,0 l/m 6,1 km/h (2 Bft) S 181 0 min 0 W/m 2,5 C 2,9 C 9,7 km/h (2 Bft)
30.11.2017 08:42 2,9 C 97 % 1000,5 hPa 0,0 l/m 5,3 km/h (1 Bft) S 169 0 min 0 W/m 2,5 C 2,9 C 12,9 km/h (3 Bft)
30.11.2017 08:45 2,9 C 97 % 1000,5 hPa 0,0 l/m 6,0 km/h (2 Bft) SO 146 0 min 5 W/m 2,5 C 2,9 C 9,7 km/h (2 Bft)
30.11.2017 08:48 2,9 C 97 % 1000,5 hPa 0,0 l/m 5,6 km/h (2 Bft) S 171 0 min 5 W/m 2,5 C 2,9 C 12,9 km/h (3 Bft)
30.11.2017 08:51 2,9 C 97 % 1000,6 hPa 0,0 l/m 5,5 km/h (2 Bft) S 172 0 min 5 W/m 2,5 C 2,9 C 11,3 km/h (2 Bft)
30.11.2017 08:54 2,9 C 97 % 1000,6 hPa 0,0 l/m 4,5 km/h (1 Bft) S-SO 152 0 min 5 W/m 2,5 C 2,9 C 8,0 km/h (2 Bft)
30.11.2017 08:57 2,9 C 97 % 1000,6 hPa 0,0 l/m 6,9 km/h (2 Bft) S-SO 161 0 min 5 W/m 2,5 C 2,4 C 14,5 km/h (3 Bft)
30.11.2017 09:00 2,9 C 97 % 1000,6 hPa 0,0 l/m 5,7 km/h (2 Bft) S-SO 156 0 min 11 W/m 2,5 C 2,9 C 11,3 km/h (2 Bft)
30.11.2017 09:03 2,9 C 97 % 1000,6 hPa 0,0 l/m 4,4 km/h (1 Bft) S-SO 159 0 min 11 W/m 2,5 C 2,9 C 8,0 km/h (2 Bft)
30.11.2017 09:06 2,9 C 97 % 1000,6 hPa 0,0 l/m 4,2 km/h (1 Bft) SO 126 0 min 14 W/m 2,5 C 2,9 C 9,7 km/h (2 Bft)
30.11.2017 09:09 2,9 C 97 % 1000,6 hPa 0,0 l/m 6,4 km/h (2 Bft) S 171 0 min 14 W/m 2,5 C 2,9 C 11,3 km/h (2 Bft)
30.11.2017 09:12 2,9 C 97 % 1000,6 hPa 0,0 l/m 5,9 km/h (2 Bft) S-SO 159 0 min 23 W/m 2,5 C 2,9 C 11,3 km/h (2 Bft)
30.11.2017 09:15 2,9 C 97 % 1000,6 hPa 0,0 l/m 7,1 km/h (2 Bft) S 171 0 min 19 W/m 2,5 C 2,2 C 9,7 km/h (2 Bft)
30.11.2017 09:18 3,0 C 97 % 1000,6 hPa 0,0 l/m 7,2 km/h (2 Bft) S-SO 166 0 min 23 W/m 2,6 C 2,2 C 14,5 km/h (3 Bft)
30.11.2017 09:21 3,0 C 97 % 1000,7 hPa 0,0 l/m 5,3 km/h (1 Bft) S 172 0 min 18 W/m 2,6 C 3,0 C 12,9 km/h (3 Bft)
30.11.2017 09:24 3,0 C 97 % 1000,7 hPa 0,0 l/m 6,7 km/h (2 Bft) S 172 0 min 14 W/m 2,6 C 2,7 C 9,7 km/h (2 Bft)
30.11.2017 09:27 3,1 C 97 % 1000,6 hPa 0,0 l/m 4,6 km/h (1 Bft) S 173 0 min 12 W/m 2,7 C 3,1 C 9,7 km/h (2 Bft)
30.11.2017 09:30 3,1 C 97 % 1000,6 hPa 0,0 l/m 5,2 km/h (1 Bft) S-SO 163 0 min 19 W/m 2,7 C 3,1 C 9,7 km/h (2 Bft)
30.11.2017 09:33 3,1 C 97 % 1000,7 hPa 0,0 l/m 5,2 km/h (1 Bft) S 169 0 min 19 W/m 2,7 C 3,1 C 9,7 km/h (2 Bft)
30.11.2017 09:36 3,1 C 97 % 1000,6 hPa 0,0 l/m 5,1 km/h (1 Bft) S-SO 166 0 min 16 W/m 2,7 C 3,1 C 12,9 km/h (3 Bft)
30.11.2017 09:39 3,1 C 97 % 1000,7 hPa 0,0 l/m 5,4 km/h (2 Bft) S-SO 165 0 min 12 W/m 2,7 C 3,1 C 11,3 km/h (2 Bft)
30.11.2017 09:42 3,1 C 97 % 1000,7 hPa 0,0 l/m 6,0 km/h (2 Bft) S 170 0 min 11 W/m 2,7 C 3,1 C 12,9 km/h (3 Bft)
30.11.2017 09:45 3,1 C 97 % 1000,6 hPa 0,0 l/m 4,3 km/h (1 Bft) S-SO 157 0 min 11 W/m 2,7 C 3,1 C 9,7 km/h (2 Bft)
30.11.2017 09:48 3,2 C 97 % 1000,6 hPa 0,0 l/m 4,1 km/h (1 Bft) S 171 0 min 11 W/m 2,8 C 3,2 C 9,7 km/h (2 Bft)
30.11.2017 09:51 3,2 C 97 % 1000,6 hPa 0,0 l/m 6,3 km/h (2 Bft) S 169 0 min 12 W/m 2,8 C 3,2 C 11,3 km/h (2 Bft)
30.11.2017 09:54 3,2 C 97 % 1000,5 hPa 0,0 l/m 5,2 km/h (1 Bft) S 184 0 min 14 W/m 2,8 C 3,2 C 9,7 km/h (2 Bft)
30.11.2017 09:57 3,2 C 97 % 1000,6 hPa 0,0 l/m 4,3 km/h (1 Bft) S-SO 167 0 min 14 W/m 2,8 C 3,2 C 9,7 km/h (2 Bft)
30.11.2017 10:00 3,2 C 97 % 1000,5 hPa 0,0 l/m 7,4 km/h (2 Bft) S 173 0 min 19 W/m 2,8 C 2,3 C 12,9 km/h (3 Bft)
30.11.2017 10:03 3,2 C 97 % 1000,6 hPa 0,0 l/m 6,5 km/h (2 Bft) S-SW 198 0 min 33 W/m 2,8 C 3,1 C 11,3 km/h (2 Bft)
30.11.2017 10:06 3,2 C 97 % 1000,6 hPa 0,0 l/m 6,0 km/h (2 Bft) S 180 0 min 37 W/m 2,8 C 3,2 C 11,3 km/h (2 Bft)
30.11.2017 10:09 3,2 C 97 % 1000,6 hPa 0,0 l/m 6,8 km/h (2 Bft) S 184 0 min 40 W/m 2,8 C 2,8 C 11,3 km/h (2 Bft)
30.11.2017 10:12 3,2 C 97 % 1000,5 hPa 0,0 l/m 5,4 km/h (2 Bft) S 184 0 min 51 W/m 2,8 C 3,2 C 9,7 km/h (2 Bft)
30.11.2017 10:15 3,3 C 97 % 1000,5 hPa 0,0 l/m 5,6 km/h (2 Bft) S-SW 196 0 min 44 W/m 2,9 C 3,3 C 8,0 km/h (2 Bft)
30.11.2017 10:18 3,3 C 97 % 1000,5 hPa 0,0 l/m 6,3 km/h (2 Bft) S 175 0 min 46 W/m 2,9 C 3,3 C 9,7 km/h (2 Bft)
30.11.2017 10:21 3,3 C 97 % 1000,5 hPa 0,0 l/m 7,5 km/h (2 Bft) S-SW 192 0 min 47 W/m 2,9 C 2,3 C 16,1 km/h (3 Bft)
30.11.2017 10:24 3,3 C 97 % 1000,4 hPa 0,0 l/m 8,4 km/h (2 Bft) S 172 0 min 83 W/m 2,9 C 1,5 C 12,9 km/h (3 Bft)
30.11.2017 10:27 3,3 C 97 % 1000,5 hPa 0,0 l/m 9,3 km/h (2 Bft) S-SO 164 0 min 91 W/m 2,9 C 0,7 C 17,7 km/h (3 Bft)
30.11.2017 10:30 3,4 C 97 % 1000,5 hPa 0,0 l/m 5,1 km/h (1 Bft) S 175 0 min 62 W/m 3,0 C 3,4 C 9,7 km/h (2 Bft)
30.11.2017 10:33 3,4 C 98 % 1000,5 hPa 0,0 l/m 8,0 km/h (2 Bft) S-SO 164 0 min 51 W/m 3,1 C 1,9 C 16,1 km/h (3 Bft)
30.11.2017 10:36 3,4 C 97 % 1000,6 hPa 0,0 l/m 9,8 km/h (2 Bft) SO 142 0 min 47 W/m 3,0 C 0,5 C 17,7 km/h (3 Bft)
30.11.2017 10:39 3,4 C 97 % 1000,5 hPa 0,0 l/m 7,2 km/h (2 Bft) S-SO 159 0 min 47 W/m 3,0 C 2,7 C 11,3 km/h (2 Bft)
30.11.2017 10:42 3,4 C 97 % 1000,5 hPa 0,0 l/m 8,2 km/h (2 Bft) S-SO 165 0 min 51 W/m 3,0 C 1,7 C 16,1 km/h (3 Bft)
30.11.2017 10:45 3,4 C 97 % 1000,5 hPa 0,0 l/m 8,4 km/h (2 Bft) S-SO 165 0 min 51 W/m 3,0 C 1,6 C 14,5 km/h (3 Bft)
30.11.2017 10:48 3,4 C 97 % 1000,5 hPa 0,0 l/m 7,2 km/h (2 Bft) S-SW 206 0 min 35 W/m 3,0 C 2,7 C 12,9 km/h (3 Bft)
30.11.2017 10:51 3,4 C 97 % 1000,5 hPa 0,0 l/m 6,4 km/h (2 Bft) S 171 0 min 40 W/m 3,0 C 3,4 C 12,9 km/h (3 Bft)
30.11.2017 10:54 3,4 C 97 % 1000,5 hPa 0,0 l/m 7,3 km/h (2 Bft) S-SO 159 0 min 33 W/m 3,0 C 2,6 C 11,3 km/h (2 Bft)
30.11.2017 10:57 3,4 C 97 % 1000,5 hPa 0,0 l/m 7,0 km/h (2 Bft) S 174 0 min 33 W/m 3,0 C 2,8 C 9,7 km/h (2 Bft)
30.11.2017 11:00 3,4 C 97 % 1000,4 hPa 0,0 l/m 6,8 km/h (2 Bft) S 188 0 min 37 W/m 3,0 C 3,0 C 16,1 km/h (3 Bft)
30.11.2017 11:03 3,4 C 97 % 1000,4 hPa 0,0 l/m 7,7 km/h (2 Bft) SW 223 0 min 47 W/m 3,0 C 2,2 C 14,5 km/h (3 Bft)
30.11.2017 11:06 3,4 C 97 % 1000,3 hPa 0,0 l/m 6,8 km/h (2 Bft) S-SO 163 0 min 51 W/m 3,0 C 3,0 C 11,3 km/h (2 Bft)
30.11.2017 11:09 3,5 C 97 % 1000,4 hPa 0,0 l/m 6,0 km/h (2 Bft) S-SO 157 0 min 49 W/m 3,1 C 3,5 C 9,7 km/h (2 Bft)
30.11.2017 11:12 3,5 C 97 % 1000,4 hPa 0,0 l/m 7,2 km/h (2 Bft) SO 144 0 min 49 W/m 3,1 C 2,8 C 12,9 km/h (3 Bft)
30.11.2017 11:15 3,6 C 97 % 1000,4 hPa 0,0 l/m 7,3 km/h (2 Bft) S 181 0 min 60 W/m 3,2 C 2,8 C 11,3 km/h (2 Bft)
30.11.2017 11:18 3,6 C 97 % 1000,3 hPa 0,0 l/m 6,6 km/h (2 Bft) S-SO 163 0 min 79 W/m 3,2 C 3,4 C 14,5 km/h (3 Bft)
30.11.2017 11:21 3,6 C 97 % 1000,2 hPa 0,0 l/m 8,7 km/h (2 Bft) S 171 0 min 81 W/m 3,2 C 1,5 C 16,1 km/h (3 Bft)
30.11.2017 11:24 3,6 C 97 % 1000,3 hPa 0,0 l/m 6,0 km/h (2 Bft) S 178 0 min 88 W/m 3,2 C 3,6 C 9,7 km/h (2 Bft)
30.11.2017 11:27 3,7 C 97 % 1000,3 hPa 0,0 l/m 5,7 km/h (2 Bft) S 183 0 min 95 W/m 3,3 C 3,7 C 11,3 km/h (2 Bft)
30.11.2017 11:30 3,7 C 97 % 1000,3 hPa 0,0 l/m 8,9 km/h (2 Bft) S-SO 168 0 min 88 W/m 3,3 C 1,5 C 16,1 km/h (3 Bft)
30.11.2017 11:33 3,7 C 97 % 1000,3 hPa 0,0 l/m 8,0 km/h (2 Bft) S-SO 163 0 min 91 W/m 3,3 C 2,2 C 16,1 km/h (3 Bft)
30.11.2017 11:36 3,7 C 97 % 1000,3 hPa 0,0 l/m 8,3 km/h (2 Bft) S 182 0 min 91 W/m 3,3 C 2,0 C 14,5 km/h (3 Bft)
30.11.2017 11:39 3,7 C 97 % 1000,2 hPa 0,0 l/m 7,3 km/h (2 Bft) S 179 0 min 88 W/m 3,3 C 2,9 C 16,1 km/h (3 Bft)
30.11.2017 11:42 3,8 C 97 % 1000,2 hPa 0,0 l/m 6,2 km/h (2 Bft) SW 234 0 min 104 W/m 3,4 C 3,8 C 12,9 km/h (3 Bft)
30.11.2017 11:45 3,8 C 97 % 1000,3 hPa 0,0 l/m 7,2 km/h (2 Bft) S-SW 203 0 min 102 W/m 3,4 C 3,1 C 14,5 km/h (3 Bft)
30.11.2017 11:48 3,8 C 97 % 1000,2 hPa 0,0 l/m 6,9 km/h (2 Bft) S 182 0 min 104 W/m 3,4 C 3,3 C 12,9 km/h (3 Bft)
30.11.2017 11:51 3,8 C 97 % 1000,2 hPa 0,0 l/m 6,8 km/h (2 Bft) S 178 0 min 90 W/m 3,4 C 3,4 C 12,9 km/h (3 Bft)
30.11.2017 11:54 3,9 C 97 % 1000,2 hPa 0,0 l/m 7,5 km/h (2 Bft) S-SO 167 0 min 76 W/m 3,5 C 2,9 C 12,9 km/h (3 Bft)
30.11.2017 11:57 3,9 C 97 % 1000,2 hPa 0,0 l/m 6,1 km/h (2 Bft) W-SW 239 0 min 58 W/m 3,5 C 3,9 C 12,9 km/h (3 Bft)
30.11.2017 12:00 3,8 C 97 % 1000,2 hPa 0,0 l/m 7,8 km/h (2 Bft) S-SO 159 0 min 49 W/m 3,4 C 2,5 C 12,9 km/h (3 Bft)
30.11.2017 12:03 3,8 C 97 % 1000,2 hPa 0,0 l/m 10,2 km/h (2 Bft) S-SW 192 0 min 44 W/m 3,4 C 0,6 C 17,7 km/h (3 Bft)
30.11.2017 12:06 3,8 C 97 % 1000,2 hPa 0,0 l/m 6,9 km/h (2 Bft) S-SO 167 0 min 39 W/m 3,4 C 3,3 C 16,1 km/h (3 Bft)
30.11.2017 12:09 3,8 C 97 % 1000,2 hPa 0,0 l/m 6,9 km/h (2 Bft) SW 228 0 min 33 W/m 3,4 C 3,3 C 14,5 km/h (3 Bft)
30.11.2017 12:12 3,8 C 97 % 1000,2 hPa 0,0 l/m 10,9 km/h (2 Bft) S-SW 200 0 min 28 W/m 3,4 C 0,1 C 19,3 km/h (3 Bft)
30.11.2017 12:15 3,7 C 96 % 1000,2 hPa 0,0 l/m 8,3 km/h (2 Bft) S-SW 211 0 min 28 W/m 3,1 C 2,0 C 14,5 km/h (3 Bft)
30.11.2017 12:18 3,7 C 96 % 1000,2 hPa 0,0 l/m 10,7 km/h (2 Bft) W-SW 237 0 min 32 W/m 3,1 C 0,1 C 16,1 km/h (3 Bft)
30.11.2017 12:21 3,7 C 96 % 1000,3 hPa 0,0 l/m 7,2 km/h (2 Bft) S-SO 157 0 min 32 W/m 3,1 C 3,0 C 12,9 km/h (3 Bft)
30.11.2017 12:24 3,7 C 96 % 1000,3 hPa 0,0 l/m 8,3 km/h (2 Bft) S-SO 166 0 min 33 W/m 3,1 C 2,0 C 14,5 km/h (3 Bft)
30.11.2017 12:27 3,7 C 96 % 1000,3 hPa 0,0 l/m 10,2 km/h (2 Bft) S-SO 163 0 min 39 W/m 3,1 C 0,5 C 16,1 km/h (3 Bft)
30.11.2017 12:30 3,7 C 96 % 1000,3 hPa 0,0 l/m 8,5 km/h (2 Bft) S 182 0 min 47 W/m 3,1 C 1,8 C 12,9 km/h (3 Bft)
30.11.2017 12:33 3,7 C 96 % 1000,3 hPa 0,0 l/m 8,2 km/h (2 Bft) S-SW 205 0 min 40 W/m 3,1 C 2,1 C 12,9 km/h (3 Bft)
30.11.2017 12:36 3,7 C 96 % 1000,3 hPa 0,0 l/m 7,3 km/h (2 Bft) S 183 0 min 39 W/m 3,1 C 2,9 C 11,3 km/h (2 Bft)
30.11.2017 12:39 3,7 C 96 % 1000,3 hPa 0,0 l/m 7,1 km/h (2 Bft) S-SW 211 0 min 40 W/m 3,1 C 3,1 C 11,3 km/h (2 Bft)
30.11.2017 12:42 3,7 C 96 % 1000,3 hPa 0,0 l/m 7,8 km/h (2 Bft) S-SW 202 0 min 39 W/m 3,1 C 2,4 C 12,9 km/h (3 Bft)
30.11.2017 12:45 3,7 C 96 % 1000,3 hPa 0,0 l/m 7,2 km/h (2 Bft) S 178 0 min 46 W/m 3,1 C 3,0 C 11,3 km/h (2 Bft)
30.11.2017 12:48 3,7 C 96 % 1000,3 hPa 0,0 l/m 6,8 km/h (2 Bft) SW 217 0 min 56 W/m 3,1 C 3,3 C 11,3 km/h (2 Bft)
30.11.2017 12:51 3,6 C 96 % 1000,3 hPa 0,0 l/m 6,9 km/h (2 Bft) S-SO 168 0 min 46 W/m 3,0 C 3,1 C 14,5 km/h (3 Bft)
30.11.2017 12:54 3,7 C 96 % 1000,3 hPa 0,0 l/m 8,9 km/h (2 Bft) SW 225 0 min 37 W/m 3,1 C 1,5 C 14,5 km/h (3 Bft)
30.11.2017 12:57 3,7 C 96 % 1000,3 hPa 0,0 l/m 9,3 km/h (2 Bft) SW 231 0 min 35 W/m 3,1 C 1,2 C 17,7 km/h (3 Bft)
30.11.2017 13:00 3,6 C 96 % 1000,3 hPa 0,0 l/m 10,0 km/h (2 Bft) S-SW 213 0 min 32 W/m 3,0 C 0,5 C 16,1 km/h (3 Bft)
30.11.2017 13:03 3,6 C 96 % 1000,3 hPa 0,0 l/m 9,1 km/h (2 Bft) S-SW 192 0 min 32 W/m 3,0 C 1,2 C 14,5 km/h (3 Bft)
30.11.2017 13:06 3,6 C 96 % 1000,3 hPa 0,0 l/m 8,2 km/h (2 Bft) S 180 0 min 33 W/m 3,0 C 2,0 C 14,5 km/h (3 Bft)
30.11.2017 13:09 3,6 C 96 % 1000,3 hPa 0,0 l/m 9,4 km/h (2 Bft) S 170 0 min 40 W/m 3,0 C 1,0 C 16,1 km/h (3 Bft)
30.11.2017 13:12 3,7 C 96 % 1000,3 hPa 0,0 l/m 9,2 km/h (2 Bft) S 174 0 min 39 W/m 3,1 C 1,2 C 14,5 km/h (3 Bft)
30.11.2017 13:15 3,7 C 95 % 1000,2 hPa 0,0 l/m 8,2 km/h (2 Bft) S 178 0 min 33 W/m 3,0 C 2,1 C 12,9 km/h (3 Bft)
30.11.2017 13:18 3,7 C 95 % 1000,3 hPa 0,0 l/m 6,1 km/h (2 Bft) S-SO 167 0 min 32 W/m 3,0 C 3,7 C 11,3 km/h (2 Bft)
30.11.2017 13:21 3,7 C 95 % 1000,3 hPa 0,0 l/m 5,2 km/h (1 Bft) S 170 0 min 35 W/m 3,0 C 3,7 C 9,7 km/h (2 Bft)
30.11.2017 13:24 3,7 C 95 % 1000,3 hPa 0,0 l/m 6,0 km/h (2 Bft) S 177 0 min 32 W/m 3,0 C 3,7 C 11,3 km/h (2 Bft)
30.11.2017 13:27 3,7 C 95 % 1000,3 hPa 0,0 l/m 5,0 km/h (1 Bft) S 181 0 min 28 W/m 3,0 C 3,7 C 11,3 km/h (2 Bft)
30.11.2017 13:30 3,7 C 95 % 1000,2 hPa 0,0 l/m 5,1 km/h (1 Bft) SO 140 0 min 28 W/m 3,0 C 3,7 C 9,7 km/h (2 Bft)
30.11.2017 13:33 3,7 C 95 % 1000,3 hPa 0,0 l/m 3,4 km/h (1 Bft) SO 141 0 min 28 W/m 3,0 C 3,7 C 6,4 km/h (2 Bft)
30.11.2017 13:36 3,7 C 95 % 1000,3 hPa 0,0 l/m 3,1 km/h (1 Bft) S-SO 147 0 min 23 W/m 3,0 C 3,7 C 6,4 km/h (2 Bft)
30.11.2017 13:39 3,7 C 95 % 1000,3 hPa 0,0 l/m 5,4 km/h (2 Bft) SO 133 0 min 21 W/m 3,0 C 3,7 C 11,3 km/h (2 Bft)
30.11.2017 13:42 3,7 C 95 % 1000,3 hPa 0,0 l/m 3,7 km/h (1 Bft) S-SO 157 0 min 18 W/m 3,0 C 3,7 C 8,0 km/h (2 Bft)
30.11.2017 13:45 3,7 C 95 % 1000,3 hPa 0,0 l/m 3,3 km/h (1 Bft) S-SO 159 0 min 16 W/m 3,0 C 3,7 C 8,0 km/h (2 Bft)
30.11.2017 13:48 3,7 C 95 % 1000,3 hPa 0,0 l/m 2,5 km/h (1 Bft) S-SO 159 0 min 16 W/m 3,0 C 3,7 C 8,0 km/h (2 Bft)
30.11.2017 13:51 3,7 C 95 % 1000,3 hPa 0,0 l/m 3,1 km/h (1 Bft) S-SO 159 0 min 16 W/m 3,0 C 3,7 C 6,4 km/h (2 Bft)
30.11.2017 13:54 3,7 C 95 % 1000,3 hPa 0,0 l/m 3,4 km/h (1 Bft) SO 140 0 min 16 W/m 3,0 C 3,7 C 6,4 km/h (2 Bft)
30.11.2017 13:57 3,7 C 95 % 1000,3 hPa 0,0 l/m 1,9 km/h (1 Bft) SO 140 0 min 18 W/m 3,0 C 3,7 C 3,2 km/h (1 Bft)
30.11.2017 14:00 3,7 C 95 % 1000,3 hPa 0,0 l/m 1,0 km/h (0 Bft) SO 140 0 min 18 W/m 3,0 C 3,7 C 3,2 km/h (1 Bft)
30.11.2017 14:03 3,7 C 95 % 1000,3 hPa 0,0 l/m 1,7 km/h (1 Bft) SO 140 0 min 16 W/m 3,0 C 3,7 C 4,8 km/h (1 Bft)
30.11.2017 14:06 3,7 C 95 % 1000,4 hPa 0,0 l/m 2,9 km/h (1 Bft) SO 140 0 min 14 W/m 3,0 C 3,7 C 6,4 km/h (2 Bft)
30.11.2017 14:09 3,7 C 95 % 1000,4 hPa 0,0 l/m 3,0 km/h (1 Bft) SO 140 0 min 12 W/m 3,0 C 3,7 C 6,4 km/h (2 Bft)
30.11.2017 14:12 3,7 C 95 % 1000,4 hPa 0,0 l/m 2,7 km/h (1 Bft) SO 140 0 min 14 W/m 3,0 C 3,7 C 4,8 km/h (1 Bft)
30.11.2017 14:15 3,7 C 95 % 1000,4 hPa 0,0 l/m 2,3 km/h (1 Bft) SO 139 0 min 12 W/m 3,0 C 3,7 C 6,4 km/h (2 Bft)
30.11.2017 14:18 3,7 C 95 % 1000,4 hPa 0,0 l/m 3,1 km/h (1 Bft) SO 134 0 min 12 W/m 3,0 C 3,7 C 6,4 km/h (2 Bft)
30.11.2017 14:21 3,7 C 95 % 1000,4 hPa 0,0 l/m 2,1 km/h (1 Bft) SO 143 0 min 12 W/m 3,0 C 3,7 C 6,4 km/h (2 Bft)
30.11.2017 14:24 3,7 C 95 % 1000,4 hPa 0,0 l/m 2,9 km/h (1 Bft) SO 143 0 min 12 W/m 3,0 C 3,7 C 6,4 km/h (2 Bft)
30.11.2017 14:27 3,7 C 95 % 1000,4 hPa 0,0 l/m 3,3 km/h (1 Bft) SO 134 0 min 14 W/m 3,0 C 3,7 C 8,0 km/h (2 Bft)
30.11.2017 14:30 3,7 C 95 % 1000,3 hPa 0,0 l/m 4,0 km/h (1 Bft) SO 141 0 min 14 W/m 3,0 C 3,7 C 8,0 km/h (2 Bft)
30.11.2017 14:33 3,7 C 95 % 1000,4 hPa 0,0 l/m 2,8 km/h (1 Bft) SO 132 0 min 12 W/m 3,0 C 3,7 C 6,4 km/h (2 Bft)
30.11.2017 14:36 3,7 C 95 % 1000,4 hPa 0,0 l/m 2,6 km/h (1 Bft) SO 132 0 min 12 W/m 3,0 C 3,7 C 6,4 km/h (2 Bft)
30.11.2017 14:39 3,7 C 95 % 1000,4 hPa 0,0 l/m 3,2 km/h (1 Bft) SO 124 0 min 14 W/m 3,0 C 3,7 C 6,4 km/h (2 Bft)
30.11.2017 14:42 3,7 C 95 % 1000,3 hPa 0,0 l/m 2,7 km/h (1 Bft) O-SO 123 0 min 23 W/m 3,0 C 3,7 C 8,0 km/h (2 Bft)
30.11.2017 14:45 3,7 C 95 % 1000,3 hPa 0,0 l/m 3,8 km/h (1 Bft) SO 142 0 min 19 W/m 3,0 C 3,7 C 6,4 km/h (2 Bft)
30.11.2017 14:48 3,7 C 95 % 1000,3 hPa 0,0 l/m 4,9 km/h (1 Bft) S-SO 150 0 min 11 W/m 3,0 C 3,7 C 11,3 km/h (2 Bft)
30.11.2017 14:51 3,7 C 94 % 1000,4 hPa 0,0 l/m 4,9 km/h (1 Bft) SO 134 0 min 11 W/m 2,8 C 3,7 C 11,3 km/h (2 Bft)
30.11.2017 14:54 3,7 C 94 % 1000,4 hPa 0,0 l/m 3,6 km/h (1 Bft) SO 139 0 min 14 W/m 2,8 C 3,7 C 8,0 km/h (2 Bft)
30.11.2017 14:57 3,7 C 94 % 1000,5 hPa 0,0 l/m 4,9 km/h (1 Bft) S-SO 149 0 min 16 W/m 2,8 C 3,7 C 9,7 km/h (2 Bft)
30.11.2017 15:00 3,7 C 94 % 1000,5 hPa 0,0 l/m 3,7 km/h (1 Bft) SO 128 0 min 18 W/m 2,8 C 3,7 C 8,0 km/h (2 Bft)
30.11.2017 15:03 3,8 C 94 % 1000,5 hPa 0,0 l/m 4,9 km/h (1 Bft) SO 128 0 min 12 W/m 2,9 C 3,8 C 8,0 km/h (2 Bft)
30.11.2017 15:06 3,8 C 95 % 1000,6 hPa 0,0 l/m 4,0 km/h (1 Bft) S-SO 150 0 min 11 W/m 3,1 C 3,8 C 9,7 km/h (2 Bft)
30.11.2017 15:09 3,8 C 95 % 1000,6 hPa 0,0 l/m 3,1 km/h (1 Bft) SO 142 0 min 9 W/m 3,1 C 3,8 C 4,8 km/h (1 Bft)
30.11.2017 15:12 3,8 C 95 % 1000,6 hPa 0,0 l/m 3,0 km/h (1 Bft) O-SO 119 0 min 9 W/m 3,1 C 3,8 C 6,4 km/h (2 Bft)
30.11.2017 15:15 3,8 C 95 % 1000,6 hPa 0,0 l/m 4,3 km/h (1 Bft) SO 144 0 min 7 W/m 3,1 C 3,8 C 8,0 km/h (2 Bft)
30.11.2017 15:18 3,8 C 94 % 1000,6 hPa 0,0 l/m 4,5 km/h (1 Bft) S 171 0 min 7 W/m 2,9 C 3,8 C 9,7 km/h (2 Bft)
30.11.2017 15:21 3,8 C 94 % 1000,7 hPa 0,0 l/m 5,1 km/h (1 Bft) S 175 0 min 5 W/m 2,9 C 3,8 C 12,9 km/h (3 Bft)
30.11.2017 15:24 3,8 C 94 % 1000,8 hPa 0,0 l/m 4,7 km/h (1 Bft) S-SO 157 0 min 5 W/m 2,9 C 3,8 C 11,3 km/h (2 Bft)
30.11.2017 15:27 3,7 C 94 % 1000,7 hPa 0,0 l/m 6,0 km/h (2 Bft) S-SO 166 0 min 5 W/m 2,8 C 3,7 C 11,3 km/h (2 Bft)
30.11.2017 15:30 3,7 C 94 % 1000,8 hPa 0,0 l/m 6,2 km/h (2 Bft) SO 146 0 min 5 W/m 2,8 C 3,7 C 11,3 km/h (2 Bft)
30.11.2017 15:33 3,7 C 94 % 1000,9 hPa 0,2 l/m 5,1 km/h (1 Bft) S-SO 148 0 min 0 W/m 2,8 C 3,7 C 11,3 km/h (2 Bft)
30.11.2017 15:36 3,7 C 94 % 1000,8 hPa 0,0 l/m 6,3 km/h (2 Bft) S 171 0 min 0 W/m 2,8 C 3,7 C 16,1 km/h (3 Bft)
30.11.2017 15:39 3,6 C 94 % 1000,9 hPa 0,0 l/m 7,1 km/h (2 Bft) O-SO 117 0 min 0 W/m 2,7 C 3,0 C 12,9 km/h (3 Bft)
30.11.2017 15:42 3,6 C 94 % 1000,9 hPa 0,0 l/m 6,3 km/h (2 Bft) SO 128 0 min 0 W/m 2,7 C 3,6 C 14,5 km/h (3 Bft)
30.11.2017 15:45 3,6 C 94 % 1000,9 hPa 0,0 l/m 6,7 km/h (2 Bft) O-SO 115 0 min 0 W/m 2,7 C 3,3 C 12,9 km/h (3 Bft)
30.11.2017 15:48 3,5 C 94 % 1000,9 hPa 0,0 l/m 6,0 km/h (2 Bft) S-SO 155 0 min 0 W/m 2,6 C 3,5 C 11,3 km/h (2 Bft)
30.11.2017 15:51 3,4 C 94 % 1001,0 hPa 0,0 l/m 4,3 km/h (1 Bft) SO 146 0 min 0 W/m 2,5 C 3,4 C 11,3 km/h (2 Bft)
30.11.2017 15:54 3,4 C 94 % 1001,0 hPa 0,0 l/m 6,4 km/h (2 Bft) O-SO 116 0 min 0 W/m 2,5 C 3,4 C 12,9 km/h (3 Bft)
30.11.2017 15:57 3,4 C 94 % 1001,1 hPa 0,0 l/m 5,9 km/h (2 Bft) O-SO 123 0 min 0 W/m 2,5 C 3,4 C 11,3 km/h (2 Bft)
30.11.2017 16:00 3,4 C 94 % 1001,1 hPa 0,0 l/m 5,0 km/h (1 Bft) S-SO 148 0 min 0 W/m 2,5 C 3,4 C 11,3 km/h (2 Bft)
30.11.2017 16:03 3,4 C 94 % 1001,2 hPa 0,0 l/m 5,4 km/h (2 Bft) SO 132 0 min 0 W/m 2,5 C 3,4 C 11,3 km/h (2 Bft)
30.11.2017 16:06 3,3 C 94 % 1001,1 hPa 0,0 l/m 4,0 km/h (1 Bft) SO 146 0 min 0 W/m 2,4 C 3,3 C 6,4 km/h (2 Bft)
30.11.2017 16:09 3,3 C 94 % 1001,2 hPa 0,0 l/m 4,4 km/h (1 Bft) SO 146 0 min 0 W/m 2,4 C 3,3 C 9,7 km/h (2 Bft)
30.11.2017 16:12 3,3 C 94 % 1001,1 hPa 0,0 l/m 3,7 km/h (1 Bft) SO 130 0 min 0 W/m 2,4 C 3,3 C 9,7 km/h (2 Bft)
30.11.2017 16:15 3,3 C 94 % 1001,2 hPa 0,0 l/m 4,5 km/h (1 Bft) SO 137 0 min 0 W/m 2,4 C 3,3 C 9,7 km/h (2 Bft)
30.11.2017 16:18 3,3 C 94 % 1001,2 hPa 0,0 l/m 4,0 km/h (1 Bft) SO 125 0 min 0 W/m 2,4 C 3,3 C 6,4 km/h (2 Bft)
30.11.2017 16:21 3,3 C 94 % 1001,3 hPa 0,0 l/m 5,6 km/h (2 Bft) S 172 0 min 0 W/m 2,4 C 3,3 C 9,7 km/h (2 Bft)
30.11.2017 16:24 3,3 C 94 % 1001,3 hPa 0,0 l/m 6,3 km/h (2 Bft) SO 141 0 min 0 W/m 2,4 C 3,3 C 12,9 km/h (3 Bft)
30.11.2017 16:27 3,3 C 94 % 1001,4 hPa 0,0 l/m 6,4 km/h (2 Bft) S-SO 153 0 min 0 W/m 2,4 C 3,3 C 16,1 km/h (3 Bft)
30.11.2017 16:30 3,3 C 95 % 1001,4 hPa 0,0 l/m 5,6 km/h (2 Bft) S-SO 148 0 min 0 W/m 2,6 C 3,3 C 14,5 km/h (3 Bft)
30.11.2017 16:33 3,3 C 95 % 1001,5 hPa 0,0 l/m 5,1 km/h (1 Bft) SO 146 0 min 0 W/m 2,6 C 3,3 C 9,7 km/h (2 Bft)
30.11.2017 16:36 3,3 C 95 % 1001,5 hPa 0,0 l/m 6,2 km/h (2 Bft) SO 144 0 min 0 W/m 2,6 C 3,3 C 11,3 km/h (2 Bft)
30.11.2017 16:39 3,3 C 95 % 1001,5 hPa 0,0 l/m 5,8 km/h (2 Bft) S-SO 153 0 min 0 W/m 2,6 C 3,3 C 12,9 km/h (3 Bft)
30.11.2017 16:42 3,2 C 95 % 1001,6 hPa 0,0 l/m 6,5 km/h (2 Bft) S-SO 153 0 min 0 W/m 2,5 C 3,1 C 12,9 km/h (3 Bft)
30.11.2017 16:45 3,2 C 95 % 1001,6 hPa 0,0 l/m 6,8 km/h (2 Bft) S-SO 168 0 min 0 W/m 2,5 C 2,8 C 12,9 km/h (3 Bft)
30.11.2017 16:48 3,2 C 95 % 1001,7 hPa 0,0 l/m 7,1 km/h (2 Bft) O-SO 123 0 min 0 W/m 2,5 C 2,5 C 12,9 km/h (3 Bft)
30.11.2017 16:51 3,2 C 95 % 1001,7 hPa 0,0 l/m 6,1 km/h (2 Bft) O-NO 77 0 min 0 W/m 2,5 C 3,2 C 11,3 km/h (2 Bft)
30.11.2017 16:54 3,2 C 95 % 1001,8 hPa 0,0 l/m 6,8 km/h (2 Bft) O-SO 123 0 min 0 W/m 2,5 C 2,8 C 14,5 km/h (3 Bft)
30.11.2017 16:57 3,2 C 95 % 1001,7 hPa 0,0 l/m 5,8 km/h (2 Bft) O-SO 123 0 min 0 W/m 2,5 C 3,2 C 11,3 km/h (2 Bft)
30.11.2017 17:00 3,2 C 95 % 1001,8 hPa 0,0 l/m 4,7 km/h (1 Bft) SO 146 0 min 0 W/m 2,5 C 3,2 C 11,3 km/h (2 Bft)
30.11.2017 17:03 3,1 C 95 % 1001,8 hPa 0,0 l/m 5,6 km/h (2 Bft) S-SO 161 0 min 0 W/m 2,4 C 3,1 C 11,3 km/h (2 Bft)
30.11.2017 17:06 3,1 C 95 % 1001,8 hPa 0,0 l/m 5,2 km/h (1 Bft) O-SO 119 0 min 0 W/m 2,4 C 3,1 C 11,3 km/h (2 Bft)
30.11.2017 17:09 3,1 C 95 % 1001,9 hPa 0,0 l/m 3,9 km/h (1 Bft) S-SO 155 0 min 0 W/m 2,4 C 3,1 C 9,7 km/h (2 Bft)
30.11.2017 17:12 3,1 C 94 % 1002,0 hPa 0,0 l/m 5,4 km/h (2 Bft) SO 142 0 min 0 W/m 2,2 C 3,1 C 11,3 km/h (2 Bft)
30.11.2017 17:15 3,1 C 95 % 1002,0 hPa 0,0 l/m 4,3 km/h (1 Bft) SO 139 0 min 0 W/m 2,4 C 3,1 C 11,3 km/h (2 Bft)
30.11.2017 17:18 3,1 C 95 % 1002,0 hPa 0,0 l/m 4,5 km/h (1 Bft) SO 132 0 min 0 W/m 2,4 C 3,1 C 11,3 km/h (2 Bft)
30.11.2017 17:21 3,1 C 95 % 1002,0 hPa 0,0 l/m 7,1 km/h (2 Bft) O-SO 112 0 min 0 W/m 2,4 C 2,4 C 12,9 km/h (3 Bft)
30.11.2017 17:24 3,1 C 94 % 1002,1 hPa 0,0 l/m 6,5 km/h (2 Bft) O-SO 117 0 min 0 W/m 2,2 C 3,0 C 12,9 km/h (3 Bft)
30.11.2017 17:27 3,1 C 94 % 1002,1 hPa 0,0 l/m 8,0 km/h (2 Bft) SO 144 0 min 0 W/m 2,2 C 1,6 C 16,1 km/h (3 Bft)
30.11.2017 17:30 3,1 C 95 % 1002,0 hPa 0,0 l/m 4,1 km/h (1 Bft) S-SO 149 0 min 0 W/m 2,4 C 3,1 C 8,0 km/h (2 Bft)
30.11.2017 17:33 3,0 C 94 % 1002,0 hPa 0,0 l/m 7,8 km/h (2 Bft) SO 144 0 min 0 W/m 2,1 C 1,7 C 17,7 km/h (3 Bft)
30.11.2017 17:36 3,0 C 95 % 1002,1 hPa 0,0 l/m 4,9 km/h (1 Bft) O-SO 123 0 min 0 W/m 2,3 C 3,0 C 11,3 km/h (2 Bft)
30.11.2017 17:39 3,0 C 95 % 1002,1 hPa 0,0 l/m 4,4 km/h (1 Bft) SO 128 0 min 0 W/m 2,3 C 3,0 C 12,9 km/h (3 Bft)
30.11.2017 17:42 2,9 C 95 % 1002,1 hPa 0,0 l/m 5,5 km/h (2 Bft) SO 136 0 min 0 W/m 2,2 C 2,9 C 12,9 km/h (3 Bft)
30.11.2017 17:45 2,9 C 95 % 1002,2 hPa 0,0 l/m 6,2 km/h (2 Bft) O-SO 113 0 min 0 W/m 2,2 C 2,9 C 16,1 km/h (3 Bft)
30.11.2017 17:48 2,9 C 95 % 1002,2 hPa 0,0 l/m 5,7 km/h (2 Bft) O-SO 123 0 min 0 W/m 2,2 C 2,9 C 11,3 km/h (2 Bft)
30.11.2017 17:51 2,9 C 95 % 1002,2 hPa 0,0 l/m 3,6 km/h (1 Bft) O-SO 107 0 min 0 W/m 2,2 C 2,9 C 9,7 km/h (2 Bft)
30.11.2017 17:54 2,9 C 95 % 1002,3 hPa 0,0 l/m 5,3 km/h (1 Bft) SO 132 0 min 0 W/m 2,2 C 2,9 C 12,9 km/h (3 Bft)
30.11.2017 17:57 2,9 C 95 % 1002,3 hPa 0,0 l/m 3,6 km/h (1 Bft) SO 134 0 min 0 W/m 2,2 C 2,9 C 8,0 km/h (2 Bft)
30.11.2017 18:00 2,8 C 95 % 1002,3 hPa 0,0 l/m 6,1 km/h (2 Bft) S-SO 148 0 min 0 W/m 2,1 C 2,8 C 14,5 km/h (3 Bft)
30.11.2017 18:03 2,8 C 95 % 1002,4 hPa 0,0 l/m 4,6 km/h (1 Bft) SO 128 0 min 0 W/m 2,1 C 2,8 C 11,3 km/h (2 Bft)
30.11.2017 18:06 2,8 C 95 % 1002,4 hPa 0,0 l/m 4,1 km/h (1 Bft) O 101 0 min 0 W/m 2,1 C 2,8 C 8,0 km/h (2 Bft)
30.11.2017 18:09 2,8 C 95 % 1002,4 hPa 0,0 l/m 4,1 km/h (1 Bft) O-SO 119 0 min 0 W/m 2,1 C 2,8 C 8,0 km/h (2 Bft)
30.11.2017 18:12 2,8 C 95 % 1002,5 hPa 0,0 l/m 4,3 km/h (1 Bft) SO 130 0 min 0 W/m 2,1 C 2,8 C 11,3 km/h (2 Bft)
30.11.2017 18:15 2,8 C 95 % 1002,6 hPa 0,0 l/m 4,0 km/h (1 Bft) O-SO 117 0 min 0 W/m 2,1 C 2,8 C 11,3 km/h (2 Bft)
30.11.2017 18:18 2,8 C 95 % 1002,6 hPa 0,0 l/m 4,1 km/h (1 Bft) O-SO 104 0 min 0 W/m 2,1 C 2,8 C 11,3 km/h (2 Bft)
30.11.2017 18:21 2,8 C 95 % 1002,6 hPa 0,0 l/m 5,8 km/h (2 Bft) SO 128 0 min 0 W/m 2,1 C 2,8 C 12,9 km/h (3 Bft)
30.11.2017 18:24 2,8 C 95 % 1002,7 hPa 0,0 l/m 2,9 km/h (1 Bft) NO 55 0 min 0 W/m 2,1 C 2,8 C 11,3 km/h (2 Bft)
30.11.2017 18:27 2,8 C 95 % 1002,7 hPa 0,0 l/m 4,5 km/h (1 Bft) SO 138 0 min 0 W/m 2,1 C 2,8 C 11,3 km/h (2 Bft)
30.11.2017 18:30 2,8 C 95 % 1002,8 hPa 0,0 l/m 2,6 km/h (1 Bft) SO 138 0 min 0 W/m 2,1 C 2,8 C 8,0 km/h (2 Bft)
30.11.2017 18:33 2,8 C 95 % 1002,8 hPa 0,0 l/m 3,6 km/h (1 Bft) O-SO 111 0 min 0 W/m 2,1 C 2,8 C 6,4 km/h (2 Bft)
30.11.2017 18:36 2,8 C 95 % 1002,9 hPa 0,0 l/m 3,3 km/h (1 Bft) SO 133 0 min 0 W/m 2,1 C 2,8 C 6,4 km/h (2 Bft)
30.11.2017 18:39 2,8 C 95 % 1002,9 hPa 0,0 l/m 4,3 km/h (1 Bft) SO 133 0 min 0 W/m 2,1 C 2,8 C 6,4 km/h (2 Bft)
30.11.2017 18:42 2,8 C 95 % 1002,9 hPa 0,2 l/m 5,2 km/h (1 Bft) SO 143 0 min 0 W/m 2,1 C 2,8 C 11,3 km/h (2 Bft)
30.11.2017 18:45 2,7 C 95 % 1003,0 hPa 0,0 l/m 4,4 km/h (1 Bft) O 99 0 min 0 W/m 2,0 C 2,7 C 11,3 km/h (2 Bft)
30.11.2017 18:48 2,7 C 95 % 1003,0 hPa 0,0 l/m 2,7 km/h (1 Bft) O-SO 117 0 min 0 W/m 2,0 C 2,7 C 9,7 km/h (2 Bft)
30.11.2017 18:51 2,7 C 95 % 1003,1 hPa 0,0 l/m 4,5 km/h (1 Bft) S-SO 148 0 min 0 W/m 2,0 C 2,7 C 9,7 km/h (2 Bft)
30.11.2017 18:54 2,7 C 95 % 1003,1 hPa 0,0 l/m 2,6 km/h (1 Bft) O-SO 102 0 min 0 W/m 2,0 C 2,7 C 9,7 km/h (2 Bft)
30.11.2017 18:57 2,7 C 95 % 1003,1 hPa 0,0 l/m 3,0 km/h (1 Bft) O 94 0 min 0 W/m 2,0 C 2,7 C 6,4 km/h (2 Bft)
30.11.2017 19:00 2,7 C 95 % 1003,2 hPa 0,0 l/m 2,5 km/h (1 Bft) O 94 0 min 0 W/m 2,0 C 2,7 C 4,8 km/h (1 Bft)
30.11.2017 19:03 2,7 C 95 % 1003,3 hPa 0,0 l/m 2,3 km/h (1 Bft) O 95 0 min 0 W/m 2,0 C 2,7 C 4,8 km/h (1 Bft)
30.11.2017 19:06 2,7 C 95 % 1003,3 hPa 0,0 l/m 2,6 km/h (1 Bft) O-SO 104 0 min 0 W/m 2,0 C 2,7 C 6,4 km/h (2 Bft)
30.11.2017 19:09 2,7 C 95 % 1003,3 hPa 0,0 l/m 3,3 km/h (1 Bft) O 101 0 min 0 W/m 2,0 C 2,7 C 11,3 km/h (2 Bft)
30.11.2017 19:12 2,7 C 95 % 1003,3 hPa 0,0 l/m 2,4 km/h (1 Bft) O 94 0 min 0 W/m 2,0 C 2,7 C 6,4 km/h (2 Bft)
30.11.2017 19:15 2,7 C 95 % 1003,4 hPa 0,0 l/m 1,5 km/h (1 Bft) O 94 0 min 0 W/m 2,0 C 2,7 C 3,2 km/h (1 Bft)
30.11.2017 19:18 2,7 C 95 % 1003,4 hPa 0,0 l/m 2,0 km/h (1 Bft) O-SO 102 0 min 0 W/m 2,0 C 2,7 C 4,8 km/h (1 Bft)
30.11.2017 19:21 2,7 C 95 % 1003,5 hPa 0,0 l/m 2,3 km/h (1 Bft) O 93 0 min 0 W/m 2,0 C 2,7 C 6,4 km/h (2 Bft)
30.11.2017 19:24 2,7 C 95 % 1003,5 hPa 0,0 l/m 2,5 km/h (1 Bft) SO 138 0 min 0 W/m 2,0 C 2,7 C 8,0 km/h (2 Bft)
30.11.2017 19:27 2,7 C 95 % 1003,5 hPa 0,0 l/m 5,1 km/h (1 Bft) S-SO 155 0 min 0 W/m 2,0 C 2,7 C 9,7 km/h (2 Bft)
30.11.2017 19:30 2,7 C 95 % 1003,5 hPa 0,0 l/m 3,9 km/h (1 Bft) SO 131 0 min 0 W/m 2,0 C 2,7 C 9,7 km/h (2 Bft)
30.11.2017 19:33 2,7 C 95 % 1003,5 hPa 0,0 l/m 4,0 km/h (1 Bft) SO 126 0 min 0 W/m 2,0 C 2,7 C 9,7 km/h (2 Bft)
30.11.2017 19:36 2,7 C 95 % 1003,6 hPa 0,0 l/m 4,1 km/h (1 Bft) O-SO 123 0 min 0 W/m 2,0 C 2,7 C 6,4 km/h (2 Bft)
30.11.2017 19:39 2,7 C 95 % 1003,5 hPa 0,0 l/m 3,3 km/h (1 Bft) O-SO 123 0 min 0 W/m 2,0 C 2,7 C 9,7 km/h (2 Bft)
30.11.2017 19:42 2,7 C 95 % 1003,5 hPa 0,0 l/m 3,4 km/h (1 Bft) SO 138 0 min 0 W/m 2,0 C 2,7 C 8,0 km/h (2 Bft)
30.11.2017 19:45 2,7 C 95 % 1003,6 hPa 0,0 l/m 3,5 km/h (1 Bft) SO 130 0 min 0 W/m 2,0 C 2,7 C 9,7 km/h (2 Bft)
30.11.2017 19:48 2,7 C 95 % 1003,5 hPa 0,0 l/m 3,7 km/h (1 Bft) SO 133 0 min 0 W/m 2,0 C 2,7 C 8,0 km/h (2 Bft)
30.11.2017 19:51 2,7 C 95 % 1003,6 hPa 0,0 l/m 3,2 km/h (1 Bft) SO 126 0 min 0 W/m 2,0 C 2,7 C 8,0 km/h (2 Bft)
30.11.2017 19:54 2,7 C 95 % 1003,7 hPa 0,0 l/m 3,6 km/h (1 Bft) SO 126 0 min 0 W/m 2,0 C 2,7 C 6,4 km/h (2 Bft)
30.11.2017 19:57 2,7 C 95 % 1003,7 hPa 0,0 l/m 4,6 km/h (1 Bft) SO 144 0 min 0 W/m 2,0 C 2,7 C 11,3 km/h (2 Bft)
30.11.2017 20:00 2,7 C 95 % 1003,7 hPa 0,0 l/m 3,0 km/h (1 Bft) SO 133 0 min 0 W/m 2,0 C 2,7 C 8,0 km/h (2 Bft)
30.11.2017 20:03 2,7 C 95 % 1003,8 hPa 0,0 l/m 2,1 km/h (1 Bft) SO 133 0 min 0 W/m 2,0 C 2,7 C 3,2 km/h (1 Bft)
30.11.2017 20:06 2,7 C 95 % 1003,8 hPa 0,0 l/m 2,2 km/h (1 Bft) SO 132 0 min 0 W/m 2,0 C 2,7 C 4,8 km/h (1 Bft)
30.11.2017 20:09 2,7 C 95 % 1003,8 hPa 0,0 l/m 3,0 km/h (1 Bft) O-SO 123 0 min 0 W/m 2,0 C 2,7 C 4,8 km/h (1 Bft)
30.11.2017 20:12 2,7 C 95 % 1003,8 hPa 0,0 l/m 3,1 km/h (1 Bft) O-SO 123 0 min 0 W/m 2,0 C 2,7 C 6,4 km/h (2 Bft)
30.11.2017 20:15 2,7 C 95 % 1003,9 hPa 0,0 l/m 1,2 km/h (1 Bft) O-SO 109 0 min 0 W/m 2,0 C 2,7 C 3,2 km/h (1 Bft)
30.11.2017 20:18 2,7 C 95 % 1004,0 hPa 0,0 l/m 2,3 km/h (1 Bft) O-SO 110 0 min 0 W/m 2,0 C 2,7 C 4,8 km/h (1 Bft)
30.11.2017 20:21 2,7 C 95 % 1004,0 hPa 0,0 l/m 2,3 km/h (1 Bft) O-SO 110 0 min 0 W/m 2,0 C 2,7 C 4,8 km/h (1 Bft)
30.11.2017 20:24 2,7 C 95 % 1004,0 hPa 0,0 l/m 2,3 km/h (1 Bft) O-SO 110 0 min 0 W/m 2,0 C 2,7 C 4,8 km/h (1 Bft)
30.11.2017 20:27 2,7 C 95 % 1004,1 hPa 0,0 l/m 2,3 km/h (1 Bft) O-SO 119 0 min 0 W/m 2,0 C 2,7 C 6,4 km/h (2 Bft)
30.11.2017 20:30 2,7 C 95 % 1004,1 hPa 0,0 l/m 3,6 km/h (1 Bft) O-SO 115 0 min 0 W/m 2,0 C 2,7 C 6,4 km/h (2 Bft)
30.11.2017 20:33 2,7 C 95 % 1004,0 hPa 0,0 l/m 1,2 km/h (1 Bft) O-SO 115 0 min 0 W/m 2,0 C 2,7 C 4,8 km/h (1 Bft)
30.11.2017 20:36 2,7 C 95 % 1004,0 hPa 0,0 l/m 1,6 km/h (1 Bft) O-SO 115 0 min 0 W/m 2,0 C 2,7 C 4,8 km/h (1 Bft)
30.11.2017 20:39 2,7 C 95 % 1004,1 hPa 0,0 l/m 1,3 km/h (1 Bft) O-SO 115 0 min 0 W/m 2,0 C 2,7 C 4,8 km/h (1 Bft)
30.11.2017 20:42 2,7 C 95 % 1004,1 hPa 0,0 l/m 1,2 km/h (1 Bft) O-SO 115 0 min 0 W/m 2,0 C 2,7 C 3,2 km/h (1 Bft)
30.11.2017 20:45 2,7 C 95 % 1004,2 hPa 0,0 l/m 1,1 km/h (1 Bft) O-SO 115 0 min 0 W/m 2,0 C 2,7 C 3,2 km/h (1 Bft)
30.11.2017 20:48 2,7 C 95 % 1004,2 hPa 0,0 l/m 1,0 km/h (0 Bft) O-SO 115 0 min 0 W/m 2,0 C 2,7 C 3,2 km/h (1 Bft)
30.11.2017 20:51 2,7 C 95 % 1004,3 hPa 0,0 l/m 0,5 km/h (0 Bft) O-SO 115 0 min 0 W/m 2,0 C 2,7 C 1,6 km/h (1 Bft)
30.11.2017 20:54 2,7 C 95 % 1004,3 hPa 0,0 l/m 0,0 km/h (0 Bft) O-SO 115 0 min 0 W/m 2,0 C 2,7 C 0,0 km/h (0 Bft)
30.11.2017 20:57 2,7 C 95 % 1004,3 hPa 0,0 l/m 0,8 km/h (0 Bft) O-SO 114 0 min 0 W/m 2,0 C 2,7 C 1,6 km/h (1 Bft)
30.11.2017 21:00 2,7 C 95 % 1004,4 hPa 0,0 l/m 0,5 km/h (0 Bft) O-SO 114 0 min 0 W/m 2,0 C 2,7 C 1,6 km/h (1 Bft)
30.11.2017 21:03 2,7 C 95 % 1004,4 hPa 0,0 l/m 1,8 km/h (1 Bft) O-SO 105 0 min 0 W/m 2,0 C 2,7 C 3,2 km/h (1 Bft)
30.11.2017 21:06 2,7 C 95 % 1004,5 hPa 0,0 l/m 1,8 km/h (1 Bft) O-NO 57 0 min 0 W/m 2,0 C 2,7 C 8,0 km/h (2 Bft)
30.11.2017 21:09 2,7 C 95 % 1004,5 hPa 0,0 l/m 1,0 km/h (0 Bft) O-NO 57 0 min 0 W/m 2,0 C 2,7 C 3,2 km/h (1 Bft)
30.11.2017 21:12 2,7 C 95 % 1004,6 hPa 0,0 l/m 0,8 km/h (0 Bft) O-NO 60 0 min 0 W/m 2,0 C 2,7 C 6,4 km/h (2 Bft)
30.11.2017 21:15 2,7 C 95 % 1004,6 hPa 0,0 l/m 0,2 km/h (0 Bft) O-NO 60 0 min 0 W/m 2,0 C 2,7 C 1,6 km/h (1 Bft)
30.11.2017 21:18 2,7 C 95 % 1004,7 hPa 0,0 l/m 0,6 km/h (0 Bft) O-NO 60 0 min 0 W/m 2,0 C 2,7 C 3,2 km/h (1 Bft)
30.11.2017 21:21 2,7 C 95 % 1004,7 hPa 0,0 l/m 0,9 km/h (0 Bft) O-NO 69 0 min 0 W/m 2,0 C 2,7 C 4,8 km/h (1 Bft)
30.11.2017 21:24 2,7 C 95 % 1004,7 hPa 0,0 l/m 1,3 km/h (1 Bft) O-NO 69 0 min 0 W/m 2,0 C 2,7 C 4,8 km/h (1 Bft)
30.11.2017 21:27 2,7 C 95 % 1004,8 hPa 0,0 l/m 1,3 km/h (1 Bft) O-NO 68 0 min 0 W/m 2,0 C 2,7 C 4,8 km/h (1 Bft)
30.11.2017 21:30 2,7 C 95 % 1004,8 hPa 0,0 l/m 2,4 km/h (1 Bft) O-NO 69 0 min 0 W/m 2,0 C 2,7 C 6,4 km/h (2 Bft)
30.11.2017 21:33 2,7 C 95 % 1004,9 hPa 0,0 l/m 1,6 km/h (1 Bft) O-NO 69 0 min 0 W/m 2,0 C 2,7 C 3,2 km/h (1 Bft)
30.11.2017 21:36 2,7 C 95 % 1004,9 hPa 0,0 l/m 1,3 km/h (1 Bft) O-NO 67 0 min 0 W/m 2,0 C 2,7 C 4,8 km/h (1 Bft)
30.11.2017 21:39 2,7 C 95 % 1005,0 hPa 0,0 l/m 0,2 km/h (0 Bft) O-NO 67 0 min 0 W/m 2,0 C 2,7 C 1,6 km/h (1 Bft)
30.11.2017 21:42 2,7 C 95 % 1005,1 hPa 0,0 l/m 0,1 km/h (0 Bft) O-NO 67 0 min 0 W/m 2,0 C 2,7 C 1,6 km/h (1 Bft)
30.11.2017 21:45 2,7 C 95 % 1005,1 hPa 0,0 l/m 2,0 km/h (1 Bft) O-NO 78 0 min 0 W/m 2,0 C 2,7 C 3,2 km/h (1 Bft)
30.11.2017 21:48 2,7 C 95 % 1005,1 hPa 0,0 l/m 2,4 km/h (1 Bft) NO 40 0 min 0 W/m 2,0 C 2,7 C 6,4 km/h (2 Bft)
30.11.2017 21:51 2,7 C 95 % 1005,1 hPa 0,0 l/m 1,0 km/h (0 Bft) NO 40 0 min 0 W/m 2,0 C 2,7 C 3,2 km/h (1 Bft)
30.11.2017 21:54 2,7 C 95 % 1005,1 hPa 0,0 l/m 1,9 km/h (1 Bft) NO 40 0 min 0 W/m 2,0 C 2,7 C 3,2 km/h (1 Bft)
30.11.2017 21:57 2,8 C 95 % 1005,2 hPa 0,0 l/m 1,9 km/h (1 Bft) NO 40 0 min 0 W/m 2,1 C 2,8 C 3,2 km/h (1 Bft)
30.11.2017 22:00 2,8 C 95 % 1005,2 hPa 0,0 l/m 3,5 km/h (1 Bft) O-NO 78 0 min 0 W/m 2,1 C 2,8 C 9,7 km/h (2 Bft)
30.11.2017 22:03 2,8 C 95 % 1005,2 hPa 0,0 l/m 3,6 km/h (1 Bft) O-SO 116 0 min 0 W/m 2,1 C 2,8 C 6,4 km/h (2 Bft)
30.11.2017 22:06 2,8 C 95 % 1005,2 hPa 0,0 l/m 4,4 km/h (1 Bft) O-NO 71 0 min 0 W/m 2,1 C 2,8 C 9,7 km/h (2 Bft)
30.11.2017 22:09 2,8 C 95 % 1005,4 hPa 0,0 l/m 2,4 km/h (1 Bft) N-NO 19 0 min 0 W/m 2,1 C 2,8 C 6,4 km/h (2 Bft)
30.11.2017 22:12 2,8 C 95 % 1005,4 hPa 0,0 l/m 3,1 km/h (1 Bft) O-NO 74 0 min 0 W/m 2,1 C 2,8 C 6,4 km/h (2 Bft)
30.11.2017 22:15 2,8 C 95 % 1005,4 hPa 0,0 l/m 4,1 km/h (1 Bft) O-NO 78 0 min 0 W/m 2,1 C 2,8 C 8,0 km/h (2 Bft)
30.11.2017 22:18 2,7 C 95 % 1005,5 hPa 0,0 l/m 2,4 km/h (1 Bft) O-NO 78 0 min 0 W/m 2,0 C 2,7 C 6,4 km/h (2 Bft)
30.11.2017 22:21 2,7 C 95 % 1005,5 hPa 0,0 l/m 4,1 km/h (1 Bft) O 88 0 min 0 W/m 2,0 C 2,7 C 8,0 km/h (2 Bft)
30.11.2017 22:24 2,7 C 95 % 1005,6 hPa 0,0 l/m 3,2 km/h (1 Bft) NO 53 0 min 0 W/m 2,0 C 2,7 C 6,4 km/h (2 Bft)
30.11.2017 22:27 2,7 C 95 % 1005,6 hPa 0,0 l/m 3,0 km/h (1 Bft) O 93 0 min 0 W/m 2,0 C 2,7 C 6,4 km/h (2 Bft)
30.11.2017 22:30 2,6 C 95 % 1005,6 hPa 0,0 l/m 1,2 km/h (1 Bft) O 82 0 min 0 W/m 1,9 C 2,6 C 6,4 km/h (2 Bft)
30.11.2017 22:33 2,6 C 95 % 1005,6 hPa 0,0 l/m 4,1 km/h (1 Bft) NO 40 0 min 0 W/m 1,9 C 2,6 C 8,0 km/h (2 Bft)
30.11.2017 22:36 2,6 C 95 % 1005,7 hPa 0,0 l/m 3,2 km/h (1 Bft) O 82 0 min 0 W/m 1,9 C 2,6 C 12,9 km/h (3 Bft)
30.11.2017 22:39 2,6 C 95 % 1005,7 hPa 0,0 l/m 3,7 km/h (1 Bft) NO 52 0 min 0 W/m 1,9 C 2,6 C 11,3 km/h (2 Bft)
30.11.2017 22:42 2,6 C 95 % 1005,8 hPa 0,0 l/m 3,9 km/h (1 Bft) O-NO 68 0 min 0 W/m 1,9 C 2,6 C 11,3 km/h (2 Bft)
30.11.2017 22:45 2,6 C 95 % 1005,8 hPa 0,0 l/m 4,2 km/h (1 Bft) O 84 0 min 0 W/m 1,9 C 2,6 C 11,3 km/h (2 Bft)
30.11.2017 22:48 2,7 C 95 % 1005,8 hPa 0,0 l/m 2,6 km/h (1 Bft) NO 44 0 min 0 W/m 2,0 C 2,7 C 4,8 km/h (1 Bft)
30.11.2017 22:51 2,7 C 95 % 1005,9 hPa 0,0 l/m 2,2 km/h (1 Bft) NO 44 0 min 0 W/m 2,0 C 2,7 C 6,4 km/h (2 Bft)
30.11.2017 22:54 2,7 C 95 % 1005,9 hPa 0,0 l/m 3,6 km/h (1 Bft) N-NO 27 0 min 0 W/m 2,0 C 2,7 C 8,0 km/h (2 Bft)
30.11.2017 22:57 2,7 C 95 % 1006,0 hPa 0,0 l/m 2,8 km/h (1 Bft) O-NO 58 0 min 0 W/m 2,0 C 2,7 C 6,4 km/h (2 Bft)
30.11.2017 23:00 2,8 C 95 % 1006,0 hPa 0,0 l/m 4,4 km/h (1 Bft) O-NO 76 0 min 0 W/m 2,1 C 2,8 C 12,9 km/h (3 Bft)
30.11.2017 23:03 2,8 C 95 % 1006,0 hPa 0,0 l/m 3,2 km/h (1 Bft) N-NO 29 0 min 0 W/m 2,1 C 2,8 C 6,4 km/h (2 Bft)
30.11.2017 23:06 2,8 C 95 % 1006,1 hPa 0,0 l/m 3,8 km/h (1 Bft) NO 36 0 min 0 W/m 2,1 C 2,8 C 6,4 km/h (2 Bft)
30.11.2017 23:09 2,8 C 95 % 1006,1 hPa 0,0 l/m 3,5 km/h (1 Bft) NO 38 0 min 0 W/m 2,1 C 2,8 C 9,7 km/h (2 Bft)
30.11.2017 23:12 2,8 C 95 % 1006,2 hPa 0,0 l/m 4,5 km/h (1 Bft) N 355 0 min 0 W/m 2,1 C 2,8 C 14,5 km/h (3 Bft)
30.11.2017 23:15 2,8 C 95 % 1006,2 hPa 0,0 l/m 3,3 km/h (1 Bft) NO 48 0 min 0 W/m 2,1 C 2,8 C 6,4 km/h (2 Bft)
30.11.2017 23:18 2,8 C 95 % 1006,3 hPa 0,0 l/m 5,2 km/h (1 Bft) O-NO 61 0 min 0 W/m 2,1 C 2,8 C 16,1 km/h (3 Bft)
30.11.2017 23:21 2,8 C 95 % 1006,3 hPa 0,0 l/m 3,0 km/h (1 Bft) NO 38 0 min 0 W/m 2,1 C 2,8 C 9,7 km/h (2 Bft)
30.11.2017 23:24 2,8 C 95 % 1006,3 hPa 0,0 l/m 2,5 km/h (1 Bft) O 90 0 min 0 W/m 2,1 C 2,8 C 6,4 km/h (2 Bft)
30.11.2017 23:27 2,8 C 95 % 1006,4 hPa 0,0 l/m 3,0 km/h (1 Bft) O-NO 57 0 min 0 W/m 2,1 C 2,8 C 8,0 km/h (2 Bft)
30.11.2017 23:30 2,8 C 95 % 1006,4 hPa 0,0 l/m 2,9 km/h (1 Bft) N-NO 17 0 min 0 W/m 2,1 C 2,8 C 8,0 km/h (2 Bft)
30.11.2017 23:33 2,8 C 95 % 1006,4 hPa 0,0 l/m 2,9 km/h (1 Bft) N-NO 22 0 min 0 W/m 2,1 C 2,8 C 8,0 km/h (2 Bft)
30.11.2017 23:36 2,8 C 95 % 1006,5 hPa 0,0 l/m 2,6 km/h (1 Bft) N-NO 22 0 min 0 W/m 2,1 C 2,8 C 4,8 km/h (1 Bft)
30.11.2017 23:39 2,8 C 95 % 1006,6 hPa 0,0 l/m 2,6 km/h (1 Bft) N-NO 22 0 min 0 W/m 2,1 C 2,8 C 6,4 km/h (2 Bft)
30.11.2017 23:42 2,8 C 95 % 1006,5 hPa 0,0 l/m 2,5 km/h (1 Bft) NO 50 0 min 0 W/m 2,1 C 2,8 C 4,8 km/h (1 Bft)
30.11.2017 23:45 2,8 C 95 % 1006,6 hPa 0,0 l/m 3,7 km/h (1 Bft) N-NO 33 0 min 0 W/m 2,1 C 2,8 C 6,4 km/h (2 Bft)
30.11.2017 23:48 2,8 C 95 % 1006,6 hPa 0,0 l/m 2,0 km/h (1 Bft) NO 34 0 min 0 W/m 2,1 C 2,8 C 4,8 km/h (1 Bft)
30.11.2017 23:51 2,8 C 95 % 1006,6 hPa 0,0 l/m 3,8 km/h (1 Bft) NO 35 0 min 0 W/m 2,1 C 2,8 C 8,0 km/h (2 Bft)
30.11.2017 23:54 2,7 C 95 % 1006,6 hPa 0,0 l/m 3,2 km/h (1 Bft) O-NO 67 0 min 0 W/m 2,0 C 2,7 C 11,3 km/h (2 Bft)
30.11.2017 23:57 2,7 C 95 % 1006,7 hPa 0,0 l/m 2,9 km/h (1 Bft) NO 46 0 min 0 W/m 2,0 C 2,7 C 4,8 km/h (1 Bft)
_ Min-Zeit 00:00 14:51 11:21 - 20:54 - - - - 22:30 06:09 20:54
Minimum _ 2,4 C 94 % 1000,2 hPa - 0,0 km/h (0 Bft) - - - - 1,9 C -2,6 C 0,0 km/h (0 Bft)
_ Max-Zeit 11:54 10:33 23:57 15:33 06:09 - - 00:00 11:42 11:54 11:57 06:18
Maximum _ 3,9 C 98 % 1006,7 hPa 0,2 l/m 13,3 km/h
S-SW (3 Bft)
- - 0 min 104 W/m 3,5 C 3,9 C 22,5 km/h
W-SW (4 Bft)
Durchschnitt _ 3,1 C 96 % 1001,9 hPa #0,4 l/m 5,5 km/h (2 Bft) S-SW - #0 min. 33 W/m 2,5 C 2,6 C 10,4 km/h (2 Bft)
2017 Cux-Wetter.de -Die Nutzung der Wetterdaten nur mit ausdrcklicher Genehmigung